<?xml version="1.0" encoding="UTF-8" standalone="no" ?>
<gpx xmlns="http://www.topografix.com/GPX/1/1" xmlns:xsi="http://www.w3.org/2001/XMLSchema-instance" xsi:schemaLocation="http://www.topografix.com/GPX/1/1 http://www.topografix.com/GPX/1/1/gpx.xsd" version="1.1" creator="VisuGPX - https://www.visugpx.com">
  <metadata>
    <name>Ambazac</name>
  </metadata>
  <trk>
    <name><![CDATA[Ambazac]]></name>
    <trkseg>
      <trkpt lat="45.97074" lon="1.41261">
        <ele>385.119872</ele>
        <time>2022-06-14T18:33:12.418Z</time>
      </trkpt>
      <trkpt lat="45.97121" lon="1.41334">
        <ele>385.119872</ele>
        <time>2022-06-14T18:33:44.150Z</time>
      </trkpt>
      <trkpt lat="45.97152" lon="1.41415">
        <ele>387.634581</ele>
        <time>2022-06-14T18:34:21.609Z</time>
      </trkpt>
      <trkpt lat="45.97166" lon="1.41385">
        <ele>389.055076</ele>
        <time>2022-06-14T18:34:37.131Z</time>
      </trkpt>
      <trkpt lat="45.97197" lon="1.41363">
        <ele>391.097639</ele>
        <time>2022-06-14T18:34:58.964Z</time>
      </trkpt>
      <trkpt lat="45.97232" lon="1.41357">
        <ele>393.118469</ele>
        <time>2022-06-14T18:35:21.034Z</time>
      </trkpt>
      <trkpt lat="45.97285" lon="1.41375">
        <ele>395.986545</ele>
        <time>2022-06-14T18:35:54.833Z</time>
      </trkpt>
      <trkpt lat="45.97348" lon="1.41365">
        <ele>398.106333</ele>
        <time>2022-06-14T18:36:29.286Z</time>
      </trkpt>
      <trkpt lat="45.97531" lon="1.41261">
        <ele>402.22585</ele>
        <time>2022-06-14T18:37:58.863Z</time>
      </trkpt>
      <trkpt lat="45.97639" lon="1.4121">
        <ele>402.124646</ele>
        <time>2022-06-14T18:38:38.116Z</time>
      </trkpt>
      <trkpt lat="45.97712" lon="1.4119">
        <ele>400.250389</ele>
        <time>2022-06-14T18:39:01.008Z</time>
      </trkpt>
      <trkpt lat="45.97767" lon="1.41194">
        <ele>398.874172</ele>
        <time>2022-06-14T18:39:17.350Z</time>
      </trkpt>
      <trkpt lat="45.97814" lon="1.41175">
        <ele>397.65567</ele>
        <time>2022-06-14T18:39:31.417Z</time>
      </trkpt>
      <trkpt lat="45.97855" lon="1.412">
        <ele>396.615086</ele>
        <time>2022-06-14T18:39:43.863Z</time>
      </trkpt>
      <trkpt lat="45.97865" lon="1.41215">
        <ele>396.261923</ele>
        <time>2022-06-14T18:39:48.184Z</time>
      </trkpt>
      <trkpt lat="45.97866" lon="1.41257">
        <ele>395.571936</ele>
        <time>2022-06-14T18:39:57.270Z</time>
      </trkpt>
      <trkpt lat="45.9792" lon="1.41173">
        <ele>394.00617</ele>
        <time>2022-06-14T18:40:13.230Z</time>
      </trkpt>
      <trkpt lat="45.97991" lon="1.41088">
        <ele>394.274662</ele>
        <time>2022-06-14T18:40:34.132Z</time>
      </trkpt>
      <trkpt lat="45.98008" lon="1.41059">
        <ele>394.350378</ele>
        <time>2022-06-14T18:40:40.748Z</time>
      </trkpt>
      <trkpt lat="45.98083" lon="1.40893">
        <ele>395.562321</ele>
        <time>2022-06-14T18:41:21.225Z</time>
      </trkpt>
      <trkpt lat="45.98143" lon="1.40825">
        <ele>396.487592</ele>
        <time>2022-06-14T18:41:41.738Z</time>
      </trkpt>
      <trkpt lat="45.98153" lon="1.40791">
        <ele>396.774243</ele>
        <time>2022-06-14T18:41:48.850Z</time>
      </trkpt>
      <trkpt lat="45.98169" lon="1.40668">
        <ele>397.590896</ele>
        <time>2022-06-14T18:42:11.982Z</time>
      </trkpt>
      <trkpt lat="45.98188" lon="1.40592">
        <ele>398.119542</ele>
        <time>2022-06-14T18:42:26.652Z</time>
      </trkpt>
      <trkpt lat="45.98187" lon="1.40556">
        <ele>398.353757</ele>
        <time>2022-06-14T18:42:33.433Z</time>
      </trkpt>
      <trkpt lat="45.98142" lon="1.40399">
        <ele>400.922394</ele>
        <time>2022-06-14T18:43:07.675Z</time>
      </trkpt>
      <trkpt lat="45.98058" lon="1.40215">
        <ele>406.895657</ele>
        <time>2022-06-14T18:44:05.817Z</time>
      </trkpt>
      <trkpt lat="45.98132" lon="1.4014">
        <ele>411.538335</ele>
        <time>2022-06-14T18:44:55.231Z</time>
      </trkpt>
      <trkpt lat="45.98189" lon="1.40146">
        <ele>415.352488</ele>
        <time>2022-06-14T18:45:28.041Z</time>
      </trkpt>
      <trkpt lat="45.98238" lon="1.40101">
        <ele>419.190777</ele>
        <time>2022-06-14T18:46:01.891Z</time>
      </trkpt>
      <trkpt lat="45.98247" lon="1.40082">
        <ele>420.25593</ele>
        <time>2022-06-14T18:46:11.618Z</time>
      </trkpt>
      <trkpt lat="45.98247" lon="1.40069">
        <ele>420.882187</ele>
        <time>2022-06-14T18:46:16.599Z</time>
      </trkpt>
      <trkpt lat="45.98239" lon="1.40049">
        <ele>421.966566</ele>
        <time>2022-06-14T18:46:25.866Z</time>
      </trkpt>
      <trkpt lat="45.98288" lon="1.39956">
        <ele>426.384925</ele>
        <time>2022-06-14T18:47:06.434Z</time>
      </trkpt>
      <trkpt lat="45.98312" lon="1.39912">
        <ele>428.378549</ele>
        <time>2022-06-14T18:47:24.353Z</time>
      </trkpt>
      <trkpt lat="45.98439" lon="1.39982">
        <ele>435.896787</ele>
        <time>2022-06-14T18:48:22.649Z</time>
      </trkpt>
      <trkpt lat="45.98468" lon="1.40031">
        <ele>438.740558</ele>
        <time>2022-06-14T18:48:44.224Z</time>
      </trkpt>
      <trkpt lat="45.98475" lon="1.40054">
        <ele>439.84154</ele>
        <time>2022-06-14T18:48:52.176Z</time>
      </trkpt>
      <trkpt lat="45.98496" lon="1.40151">
        <ele>444.439108</ele>
        <time>2022-06-14T18:49:27.577Z</time>
      </trkpt>
      <trkpt lat="45.98508" lon="1.40161">
        <ele>445.637187</ele>
        <time>2022-06-14T18:49:38.027Z</time>
      </trkpt>
      <trkpt lat="45.98528" lon="1.40141">
        <ele>447.641321</ele>
        <time>2022-06-14T18:49:51.861Z</time>
      </trkpt>
      <trkpt lat="45.98569" lon="1.40141">
        <ele>451.084167</ele>
        <time>2022-06-14T18:50:17.805Z</time>
      </trkpt>
      <trkpt lat="45.9861" lon="1.40101">
        <ele>455.259893</ele>
        <time>2022-06-14T18:50:45.349Z</time>
      </trkpt>
      <trkpt lat="45.98621" lon="1.40094">
        <ele>456.242079</ele>
        <time>2022-06-14T18:50:49.610Z</time>
      </trkpt>
      <trkpt lat="45.98628" lon="1.40098">
        <ele>456.907918</ele>
        <time>2022-06-14T18:50:57.053Z</time>
      </trkpt>
      <trkpt lat="45.98634" lon="1.40113">
        <ele>457.891166</ele>
        <time>2022-06-14T18:51:02.097Z</time>
      </trkpt>
      <trkpt lat="45.98624" lon="1.40186">
        <ele>463.240512</ele>
        <time>2022-06-14T18:51:28.049Z</time>
      </trkpt>
      <trkpt lat="45.98623" lon="1.40214">
        <ele>465.352739</ele>
        <time>2022-06-14T18:51:42.252Z</time>
      </trkpt>
      <trkpt lat="45.98628" lon="1.40232">
        <ele>466.805429</ele>
        <time>2022-06-14T18:51:49.656Z</time>
      </trkpt>
      <trkpt lat="45.98678" lon="1.40272">
        <ele>473.098785</ele>
        <time>2022-06-14T18:52:32.948Z</time>
      </trkpt>
      <trkpt lat="45.98689" lon="1.40317">
        <ele>476.707983</ele>
        <time>2022-06-14T18:52:55.103Z</time>
      </trkpt>
      <trkpt lat="45.98713" lon="1.40291">
        <ele>480.360511</ele>
        <time>2022-06-14T18:53:22.083Z</time>
      </trkpt>
      <trkpt lat="45.98766" lon="1.40203">
        <ele>491.765507</ele>
        <time>2022-06-14T18:54:36.105Z</time>
      </trkpt>
      <trkpt lat="45.98802" lon="1.40126">
        <ele>500.759616</ele>
        <time>2022-06-14T18:55:41.637Z</time>
      </trkpt>
      <trkpt lat="45.98845" lon="1.40066">
        <ele>508.611956</ele>
        <time>2022-06-14T18:56:37.463Z</time>
      </trkpt>
      <trkpt lat="45.98956" lon="1.3998">
        <ele>524.070495</ele>
        <time>2022-06-14T18:58:22.012Z</time>
      </trkpt>
      <trkpt lat="45.99" lon="1.39926">
        <ele>530.83986</ele>
        <time>2022-06-14T18:59:11.357Z</time>
      </trkpt>
      <trkpt lat="45.99017" lon="1.39919">
        <ele>532.887577</ele>
        <time>2022-06-14T18:59:26.530Z</time>
      </trkpt>
      <trkpt lat="45.99059" lon="1.39919">
        <ele>537.729994</ele>
        <time>2022-06-14T19:00:03.017Z</time>
      </trkpt>
      <trkpt lat="45.99179" lon="1.39804">
        <ele>552.942784</ele>
        <time>2022-06-14T19:01:58.304Z</time>
      </trkpt>
      <trkpt lat="45.99205" lon="1.39787">
        <ele>555.593024</ele>
        <time>2022-06-14T19:02:20.073Z</time>
      </trkpt>
      <trkpt lat="45.99232" lon="1.3978">
        <ele>558.270227</ele>
        <time>2022-06-14T19:02:41.273Z</time>
      </trkpt>
      <trkpt lat="45.99256" lon="1.39757">
        <ele>560.987954</ele>
        <time>2022-06-14T19:03:01.915Z</time>
      </trkpt>
      <trkpt lat="45.99294" lon="1.39711">
        <ele>565.246409</ele>
        <time>2022-06-14T19:03:36.424Z</time>
      </trkpt>
      <trkpt lat="45.99361" lon="1.39549">
        <ele>574.243933</ele>
        <time>2022-06-14T19:04:59.848Z</time>
      </trkpt>
      <trkpt lat="45.99396" lon="1.39521">
        <ele>576.742868</ele>
        <time>2022-06-14T19:05:24.922Z</time>
      </trkpt>
      <trkpt lat="45.9946" lon="1.39501">
        <ele>579.533544</ele>
        <time>2022-06-14T19:06:05.299Z</time>
      </trkpt>
      <trkpt lat="45.996" lon="1.3954">
        <ele>583.473374</ele>
        <time>2022-06-14T19:07:16.424Z</time>
      </trkpt>
      <trkpt lat="45.99631" lon="1.39543">
        <ele>583.024622</ele>
        <time>2022-06-14T19:07:26.492Z</time>
      </trkpt>
      <trkpt lat="45.99658" lon="1.39537">
        <ele>582.639327</ele>
        <time>2022-06-14T19:07:34.635Z</time>
      </trkpt>
      <trkpt lat="45.99708" lon="1.39505">
        <ele>581.871708</ele>
        <time>2022-06-14T19:07:50.114Z</time>
      </trkpt>
      <trkpt lat="45.99729" lon="1.39502">
        <ele>581.572525</ele>
        <time>2022-06-14T19:07:56.105Z</time>
      </trkpt>
      <trkpt lat="45.99769" lon="1.395">
        <ele>581.484919</ele>
        <time>2022-06-14T19:08:08.881Z</time>
      </trkpt>
      <trkpt lat="45.99827" lon="1.39508">
        <ele>581.512343</ele>
        <time>2022-06-14T19:08:27.569Z</time>
      </trkpt>
      <trkpt lat="45.99848" lon="1.39505">
        <ele>581.522382</ele>
        <time>2022-06-14T19:08:34.318Z</time>
      </trkpt>
      <trkpt lat="45.99846" lon="1.39597">
        <ele>581.55236</ele>
        <time>2022-06-14T19:08:56.677Z</time>
      </trkpt>
      <trkpt lat="45.99861" lon="1.39619">
        <ele>582.322049</ele>
        <time>2022-06-14T19:09:05.587Z</time>
      </trkpt>
      <trkpt lat="45.99909" lon="1.39664">
        <ele>584.701546</ele>
        <time>2022-06-14T19:09:30.488Z</time>
      </trkpt>
      <trkpt lat="45.99926" lon="1.39699">
        <ele>585.916219</ele>
        <time>2022-06-14T19:09:46.518Z</time>
      </trkpt>
      <trkpt lat="45.99932" lon="1.39752">
        <ele>587.466817</ele>
        <time>2022-06-14T19:10:01.456Z</time>
      </trkpt>
      <trkpt lat="45.9995" lon="1.39793">
        <ele>588.901032</ele>
        <time>2022-06-14T19:10:16.374Z</time>
      </trkpt>
      <trkpt lat="45.99961" lon="1.39849">
        <ele>589.101889</ele>
        <time>2022-06-14T19:10:33.614Z</time>
      </trkpt>
      <trkpt lat="45.99979" lon="1.39889">
        <ele>589.15116</ele>
        <time>2022-06-14T19:10:48.450Z</time>
      </trkpt>
      <trkpt lat="45.99999" lon="1.39913">
        <ele>589.190231</ele>
        <time>2022-06-14T19:10:57.874Z</time>
      </trkpt>
      <trkpt lat="46.00028" lon="1.39946">
        <ele>589.245717</ele>
        <time>2022-06-14T19:11:10.256Z</time>
      </trkpt>
      <trkpt lat="46.00086" lon="1.39979">
        <ele>589.194795</ele>
        <time>2022-06-14T19:11:30.607Z</time>
      </trkpt>
      <trkpt lat="46.00121" lon="1.39975">
        <ele>588.914871</ele>
        <time>2022-06-14T19:11:42.086Z</time>
      </trkpt>
      <trkpt lat="46.00147" lon="1.39983">
        <ele>588.698838</ele>
        <time>2022-06-14T19:11:51.120Z</time>
      </trkpt>
      <trkpt lat="46.00148" lon="1.40021">
        <ele>588.488972</ele>
        <time>2022-06-14T19:12:00.008Z</time>
      </trkpt>
      <trkpt lat="46.00152" lon="1.40029">
        <ele>588.433546</ele>
        <time>2022-06-14T19:12:02.584Z</time>
      </trkpt>
      <trkpt lat="46.0016" lon="1.40033">
        <ele>588.361134</ele>
        <time>2022-06-14T19:12:05.759Z</time>
      </trkpt>
      <trkpt lat="46.00175" lon="1.40034">
        <ele>588.243479</ele>
        <time>2022-06-14T19:12:10.850Z</time>
      </trkpt>
      <trkpt lat="46.00225" lon="1.40004">
        <ele>587.923565</ele>
        <time>2022-06-14T19:12:30.315Z</time>
      </trkpt>
      <trkpt lat="46.00225" lon="1.40004">
        <ele>587.923565</ele>
        <time>2022-06-14T19:12:30.325Z</time>
      </trkpt>
      <trkpt lat="46.00241" lon="1.40023">
        <ele>588.078319</ele>
        <time>2022-06-14T19:12:37.725Z</time>
      </trkpt>
      <trkpt lat="46.00244" lon="1.40049">
        <ele>588.215893</ele>
        <time>2022-06-14T19:12:44.573Z</time>
      </trkpt>
      <trkpt lat="46.00208" lon="1.4015">
        <ele>588.795381</ele>
        <time>2022-06-14T19:13:14.293Z</time>
      </trkpt>
      <trkpt lat="46.00209" lon="1.40193">
        <ele>589.014849</ele>
        <time>2022-06-14T19:13:27.249Z</time>
      </trkpt>
      <trkpt lat="46.00226" lon="1.40247">
        <ele>589.953598</ele>
        <time>2022-06-14T19:13:46.210Z</time>
      </trkpt>
      <trkpt lat="46.00229" lon="1.40267">
        <ele>590.562328</ele>
        <time>2022-06-14T19:13:55.103Z</time>
      </trkpt>
      <trkpt lat="46.0021" lon="1.40272">
        <ele>591.407294</ele>
        <time>2022-06-14T19:14:00.143Z</time>
      </trkpt>
      <trkpt lat="46.00196" lon="1.40303">
        <ele>592.52124</ele>
        <time>2022-06-14T19:14:06.805Z</time>
      </trkpt>
      <trkpt lat="46.00179" lon="1.40372">
        <ele>594.698057</ele>
        <time>2022-06-14T19:14:19.819Z</time>
      </trkpt>
      <trkpt lat="46.00187" lon="1.40392">
        <ele>595.385255</ele>
        <time>2022-06-14T19:14:23.933Z</time>
      </trkpt>
      <trkpt lat="46.00223" lon="1.40446">
        <ele>598.030224</ele>
        <time>2022-06-14T19:14:37.444Z</time>
      </trkpt>
      <trkpt lat="46.00225" lon="1.4045">
        <ele>598.25293</ele>
        <time>2022-06-14T19:14:38.290Z</time>
      </trkpt>
      <trkpt lat="46.00157" lon="1.40523">
        <ele>604.053982</ele>
        <time>2022-06-14T19:15:35.751Z</time>
      </trkpt>
      <trkpt lat="46.00137" lon="1.40554">
        <ele>606.028922</ele>
        <time>2022-06-14T19:15:54.702Z</time>
      </trkpt>
      <trkpt lat="46.0015" lon="1.40641">
        <ele>610.087808</ele>
        <time>2022-06-14T19:16:33.326Z</time>
      </trkpt>
      <trkpt lat="46.00093" lon="1.40711">
        <ele>614.243697</ele>
        <time>2022-06-14T19:17:20.130Z</time>
      </trkpt>
      <trkpt lat="46.00053" lon="1.40777">
        <ele>617.634039</ele>
        <time>2022-06-14T19:17:55.032Z</time>
      </trkpt>
      <trkpt lat="46.00048" lon="1.40813">
        <ele>619.075551</ele>
        <time>2022-06-14T19:18:08.826Z</time>
      </trkpt>
      <trkpt lat="46.00047" lon="1.4086">
        <ele>620.474724</ele>
        <time>2022-06-14T19:18:26.391Z</time>
      </trkpt>
      <trkpt lat="46.00036" lon="1.40881">
        <ele>621.23504</ele>
        <time>2022-06-14T19:18:36.557Z</time>
      </trkpt>
      <trkpt lat="46.00025" lon="1.40922">
        <ele>622.510614</ele>
        <time>2022-06-14T19:18:53.109Z</time>
      </trkpt>
      <trkpt lat="46.00021" lon="1.4098">
        <ele>624.170258</ele>
        <time>2022-06-14T19:19:14.999Z</time>
      </trkpt>
      <trkpt lat="46.00007" lon="1.41007">
        <ele>625.15595</ele>
        <time>2022-06-14T19:19:27.487Z</time>
      </trkpt>
      <trkpt lat="46.00019" lon="1.41014">
        <ele>625.692114</ele>
        <time>2022-06-14T19:19:34.695Z</time>
      </trkpt>
      <trkpt lat="46.00091" lon="1.41088">
        <ele>628.686311</ele>
        <time>2022-06-14T19:20:19.597Z</time>
      </trkpt>
      <trkpt lat="46.00192" lon="1.41208">
        <ele>632.564659</ele>
        <time>2022-06-14T19:21:23.244Z</time>
      </trkpt>
      <trkpt lat="46.00227" lon="1.41232">
        <ele>633.387812</ele>
        <time>2022-06-14T19:21:40.534Z</time>
      </trkpt>
      <trkpt lat="46.00308" lon="1.41329">
        <ele>635.661284</ele>
        <time>2022-06-14T19:22:28.113Z</time>
      </trkpt>
      <trkpt lat="46.00313" lon="1.41353">
        <ele>636.027196</ele>
        <time>2022-06-14T19:22:35.686Z</time>
      </trkpt>
      <trkpt lat="46.00314" lon="1.41423">
        <ele>636.860124</ele>
        <time>2022-06-14T19:22:58.125Z</time>
      </trkpt>
      <trkpt lat="46.00333" lon="1.41546">
        <ele>638.29876</ele>
        <time>2022-06-14T19:23:37.884Z</time>
      </trkpt>
      <trkpt lat="46.0034" lon="1.41596">
        <ele>638.879552</ele>
        <time>2022-06-14T19:23:52.737Z</time>
      </trkpt>
      <trkpt lat="46.00335" lon="1.41734">
        <ele>638.807401</ele>
        <time>2022-06-14T19:24:28.811Z</time>
      </trkpt>
      <trkpt lat="46.00346" lon="1.4175">
        <ele>638.753972</ele>
        <time>2022-06-14T19:24:34.473Z</time>
      </trkpt>
      <trkpt lat="46.00378" lon="1.41698">
        <ele>638.584651</ele>
        <time>2022-06-14T19:24:50.749Z</time>
      </trkpt>
      <trkpt lat="46.00407" lon="1.41635">
        <ele>638.305005</ele>
        <time>2022-06-14T19:25:08.196Z</time>
      </trkpt>
      <trkpt lat="46.00432" lon="1.41543">
        <ele>637.716103</ele>
        <time>2022-06-14T19:25:30.446Z</time>
      </trkpt>
      <trkpt lat="46.00485" lon="1.41409">
        <ele>636.720076</ele>
        <time>2022-06-14T19:26:09.060Z</time>
      </trkpt>
      <trkpt lat="46.00504" lon="1.4138">
        <ele>636.334927</ele>
        <time>2022-06-14T19:26:19.169Z</time>
      </trkpt>
      <trkpt lat="46.00548" lon="1.4138">
        <ele>635.740813</ele>
        <time>2022-06-14T19:26:34.479Z</time>
      </trkpt>
      <trkpt lat="46.00624" lon="1.41321">
        <ele>634.555531</ele>
        <time>2022-06-14T19:27:03.084Z</time>
      </trkpt>
      <trkpt lat="46.00772" lon="1.41223">
        <ele>625.733838</ele>
        <time>2022-06-14T19:27:47.961Z</time>
      </trkpt>
      <trkpt lat="46.00805" lon="1.41189">
        <ele>622.517974</ele>
        <time>2022-06-14T19:27:58.060Z</time>
      </trkpt>
      <trkpt lat="46.00874" lon="1.4112">
        <ele>613.219666</ele>
        <time>2022-06-14T19:28:18.257Z</time>
      </trkpt>
      <trkpt lat="46.00933" lon="1.41103">
        <ele>606.540272</ele>
        <time>2022-06-14T19:28:32.577Z</time>
      </trkpt>
      <trkpt lat="46.00951" lon="1.41119">
        <ele>604.235058</ele>
        <time>2022-06-14T19:28:37.654Z</time>
      </trkpt>
      <trkpt lat="46.00968" lon="1.41099">
        <ele>602.415614</ele>
        <time>2022-06-14T19:28:42.689Z</time>
      </trkpt>
      <trkpt lat="46.01028" lon="1.41057">
        <ele>596.738184</ele>
        <time>2022-06-14T19:28:59.092Z</time>
      </trkpt>
      <trkpt lat="46.01033" lon="1.41033">
        <ele>595.261002</ele>
        <time>2022-06-14T19:29:03.497Z</time>
      </trkpt>
      <trkpt lat="46.01072" lon="1.41026">
        <ele>591.906314</ele>
        <time>2022-06-14T19:29:13.670Z</time>
      </trkpt>
      <trkpt lat="46.01135" lon="1.40943">
        <ele>587.825158</ele>
        <time>2022-06-14T19:29:38.167Z</time>
      </trkpt>
      <trkpt lat="46.01161" lon="1.4093">
        <ele>587.120307</ele>
        <time>2022-06-14T19:29:46.645Z</time>
      </trkpt>
      <trkpt lat="46.01265" lon="1.40915">
        <ele>584.356449</ele>
        <time>2022-06-14T19:30:20.901Z</time>
      </trkpt>
      <trkpt lat="46.01261" lon="1.40945">
        <ele>583.638442</ele>
        <time>2022-06-14T19:30:27.135Z</time>
      </trkpt>
      <trkpt lat="46.01243" lon="1.4097">
        <ele>582.779843</ele>
        <time>2022-06-14T19:30:34.881Z</time>
      </trkpt>
      <trkpt lat="46.01227" lon="1.41007">
        <ele>581.747546</ele>
        <time>2022-06-14T19:30:44.429Z</time>
      </trkpt>
      <trkpt lat="46.01225" lon="1.41032">
        <ele>581.157088</ele>
        <time>2022-06-14T19:30:49.268Z</time>
      </trkpt>
      <trkpt lat="46.01223" lon="1.41068">
        <ele>580.299128</ele>
        <time>2022-06-14T19:30:56.490Z</time>
      </trkpt>
      <trkpt lat="46.01232" lon="1.41258">
        <ele>575.287626</ele>
        <time>2022-06-14T19:31:33.057Z</time>
      </trkpt>
      <trkpt lat="46.0124" lon="1.41286">
        <ele>574.458931</ele>
        <time>2022-06-14T19:31:38.787Z</time>
      </trkpt>
      <trkpt lat="46.01279" lon="1.41294">
        <ele>572.869253</ele>
        <time>2022-06-14T19:31:50.051Z</time>
      </trkpt>
      <trkpt lat="46.0135" lon="1.41239">
        <ele>570.62987</ele>
        <time>2022-06-14T19:32:14.313Z</time>
      </trkpt>
      <trkpt lat="46.01389" lon="1.41164">
        <ele>569.727442</ele>
        <time>2022-06-14T19:32:36.336Z</time>
      </trkpt>
      <trkpt lat="46.01413" lon="1.41139">
        <ele>569.32102</ele>
        <time>2022-06-14T19:32:46.483Z</time>
      </trkpt>
      <trkpt lat="46.01441" lon="1.41143">
        <ele>568.929009</ele>
        <time>2022-06-14T19:32:56.365Z</time>
      </trkpt>
      <trkpt lat="46.0145" lon="1.4115">
        <ele>568.786834</ele>
        <time>2022-06-14T19:32:59.975Z</time>
      </trkpt>
      <trkpt lat="46.01478" lon="1.41204">
        <ele>568.119534</ele>
        <time>2022-06-14T19:33:15.997Z</time>
      </trkpt>
      <trkpt lat="46.01468" lon="1.41239">
        <ele>567.749741</ele>
        <time>2022-06-14T19:33:24.610Z</time>
      </trkpt>
      <trkpt lat="46.01476" lon="1.41284">
        <ele>567.284019</ele>
        <time>2022-06-14T19:33:35.130Z</time>
      </trkpt>
      <trkpt lat="46.01516" lon="1.41298">
        <ele>566.706385</ele>
        <time>2022-06-14T19:33:48.180Z</time>
      </trkpt>
      <trkpt lat="46.01522" lon="1.41304">
        <ele>566.594127</ele>
        <time>2022-06-14T19:33:50.648Z</time>
      </trkpt>
      <trkpt lat="46.01524" lon="1.41314">
        <ele>566.493085</ele>
        <time>2022-06-14T19:33:52.842Z</time>
      </trkpt>
      <trkpt lat="46.01506" lon="1.41359">
        <ele>566.025249</ele>
        <time>2022-06-14T19:34:04.094Z</time>
      </trkpt>
      <trkpt lat="46.01495" lon="1.41429">
        <ele>565.631434</ele>
        <time>2022-06-14T19:34:19.918Z</time>
      </trkpt>
      <trkpt lat="46.01471" lon="1.41459">
        <ele>565.381517</ele>
        <time>2022-06-14T19:34:30.749Z</time>
      </trkpt>
      <trkpt lat="46.01437" lon="1.41555">
        <ele>564.79056</ele>
        <time>2022-06-14T19:34:56.873Z</time>
      </trkpt>
      <trkpt lat="46.01426" lon="1.4162">
        <ele>565.45754</ele>
        <time>2022-06-14T19:35:15.489Z</time>
      </trkpt>
      <trkpt lat="46.01425" lon="1.41638">
        <ele>565.794151</ele>
        <time>2022-06-14T19:35:21.631Z</time>
      </trkpt>
      <trkpt lat="46.01404" lon="1.41689">
        <ele>566.835576</ele>
        <time>2022-06-14T19:35:40.851Z</time>
      </trkpt>
      <trkpt lat="46.01412" lon="1.41784">
        <ele>568.550397</ele>
        <time>2022-06-14T19:36:15.284Z</time>
      </trkpt>
      <trkpt lat="46.01403" lon="1.41869">
        <ele>570.403112</ele>
        <time>2022-06-14T19:36:45.603Z</time>
      </trkpt>
      <trkpt lat="46.01376" lon="1.42015">
        <ele>574.214359</ele>
        <time>2022-06-14T19:37:38.659Z</time>
      </trkpt>
      <trkpt lat="46.01376" lon="1.42034">
        <ele>574.700488</ele>
        <time>2022-06-14T19:37:45.758Z</time>
      </trkpt>
      <trkpt lat="46.01381" lon="1.42048">
        <ele>575.094405</ele>
        <time>2022-06-14T19:37:51.397Z</time>
      </trkpt>
      <trkpt lat="46.0142" lon="1.42056">
        <ele>576.802831</ele>
        <time>2022-06-14T19:38:12.417Z</time>
      </trkpt>
      <trkpt lat="46.01431" lon="1.42066">
        <ele>577.505737</ele>
        <time>2022-06-14T19:38:20.133Z</time>
      </trkpt>
      <trkpt lat="46.01435" lon="1.4208">
        <ele>578.05487</ele>
        <time>2022-06-14T19:38:25.952Z</time>
      </trkpt>
      <trkpt lat="46.01429" lon="1.42143">
        <ele>580.341665</ele>
        <time>2022-06-14T19:38:49.889Z</time>
      </trkpt>
      <trkpt lat="46.01398" lon="1.4228">
        <ele>585.694969</ele>
        <time>2022-06-14T19:39:50.546Z</time>
      </trkpt>
      <trkpt lat="46.01384" lon="1.42371">
        <ele>589.846436</ele>
        <time>2022-06-14T19:40:32.543Z</time>
      </trkpt>
      <trkpt lat="46.01348" lon="1.42459">
        <ele>594.454769</ele>
        <time>2022-06-14T19:41:18.599Z</time>
      </trkpt>
      <trkpt lat="46.01282" lon="1.4257">
        <ele>599.894566</ele>
        <time>2022-06-14T19:42:19.611Z</time>
      </trkpt>
      <trkpt lat="46.01254" lon="1.42577">
        <ele>601.268737</ele>
        <time>2022-06-14T19:42:36.191Z</time>
      </trkpt>
      <trkpt lat="46.01236" lon="1.42572">
        <ele>602.111665</ele>
        <time>2022-06-14T19:42:46.308Z</time>
      </trkpt>
      <trkpt lat="46.01213" lon="1.42598">
        <ele>603.505082</ele>
        <time>2022-06-14T19:43:02.266Z</time>
      </trkpt>
      <trkpt lat="46.01216" lon="1.42609">
        <ele>603.877601</ele>
        <time>2022-06-14T19:43:06.517Z</time>
      </trkpt>
      <trkpt lat="46.01243" lon="1.42631">
        <ele>605.357847</ele>
        <time>2022-06-14T19:43:23.387Z</time>
      </trkpt>
      <trkpt lat="46.01256" lon="1.42666">
        <ele>605.906501</ele>
        <time>2022-06-14T19:43:36.001Z</time>
      </trkpt>
      <trkpt lat="46.01263" lon="1.42718">
        <ele>606.651316</ele>
        <time>2022-06-14T19:43:51.964Z</time>
      </trkpt>
      <trkpt lat="46.01294" lon="1.42845">
        <ele>608.551144</ele>
        <time>2022-06-14T19:44:33.762Z</time>
      </trkpt>
      <trkpt lat="46.0129" lon="1.42872">
        <ele>608.946304</ele>
        <time>2022-06-14T19:44:41.428Z</time>
      </trkpt>
      <trkpt lat="46.01315" lon="1.42849">
        <ele>609.618782</ele>
        <time>2022-06-14T19:44:54.308Z</time>
      </trkpt>
      <trkpt lat="46.01331" lon="1.42855">
        <ele>609.986201</ele>
        <time>2022-06-14T19:45:01.407Z</time>
      </trkpt>
      <trkpt lat="46.01357" lon="1.42861">
        <ele>610.581903</ele>
        <time>2022-06-14T19:45:12.625Z</time>
      </trkpt>
      <trkpt lat="46.01403" lon="1.42802">
        <ele>611.970863</ele>
        <time>2022-06-14T19:45:40.282Z</time>
      </trkpt>
      <trkpt lat="46.01428" lon="1.42786">
        <ele>612.571363</ele>
        <time>2022-06-14T19:45:52.943Z</time>
      </trkpt>
      <trkpt lat="46.01432" lon="1.42753">
        <ele>613.197567</ele>
        <time>2022-06-14T19:46:05.241Z</time>
      </trkpt>
      <trkpt lat="46.01421" lon="1.42653">
        <ele>616.818798</ele>
        <time>2022-06-14T19:46:44.204Z</time>
      </trkpt>
      <trkpt lat="46.01435" lon="1.42569">
        <ele>619.906918</ele>
        <time>2022-06-14T19:47:20.380Z</time>
      </trkpt>
      <trkpt lat="46.01495" lon="1.42502">
        <ele>623.63353</ele>
        <time>2022-06-14T19:48:07.162Z</time>
      </trkpt>
      <trkpt lat="46.01521" lon="1.42457">
        <ele>625.518086</ele>
        <time>2022-06-14T19:48:32.190Z</time>
      </trkpt>
      <trkpt lat="46.01549" lon="1.42387">
        <ele>628.085816</ele>
        <time>2022-06-14T19:49:03.535Z</time>
      </trkpt>
      <trkpt lat="46.01593" lon="1.42314">
        <ele>630.544287</ele>
        <time>2022-06-14T19:49:36.863Z</time>
      </trkpt>
      <trkpt lat="46.01612" lon="1.42297">
        <ele>630.493856</ele>
        <time>2022-06-14T19:49:46.867Z</time>
      </trkpt>
      <trkpt lat="46.01647" lon="1.42289">
        <ele>630.414509</ele>
        <time>2022-06-14T19:50:00.671Z</time>
      </trkpt>
      <trkpt lat="46.01668" lon="1.42273">
        <ele>630.362171</ele>
        <time>2022-06-14T19:50:09.152Z</time>
      </trkpt>
      <trkpt lat="46.01678" lon="1.42239">
        <ele>630.304209</ele>
        <time>2022-06-14T19:50:17.901Z</time>
      </trkpt>
      <trkpt lat="46.01672" lon="1.4205">
        <ele>627.828569</ele>
        <time>2022-06-14T19:50:58.388Z</time>
      </trkpt>
      <trkpt lat="46.01666" lon="1.41982">
        <ele>626.312322</ele>
        <time>2022-06-14T19:51:12.314Z</time>
      </trkpt>
      <trkpt lat="46.01667" lon="1.4192">
        <ele>624.905798</ele>
        <time>2022-06-14T19:51:24.927Z</time>
      </trkpt>
      <trkpt lat="46.01722" lon="1.4183">
        <ele>620.409288</ele>
        <time>2022-06-14T19:51:47.896Z</time>
      </trkpt>
      <trkpt lat="46.01744" lon="1.41794">
        <ele>618.447128</ele>
        <time>2022-06-14T19:51:56.694Z</time>
      </trkpt>
      <trkpt lat="46.01809" lon="1.41736">
        <ele>613.859579</ele>
        <time>2022-06-14T19:52:16.809Z</time>
      </trkpt>
      <trkpt lat="46.01888" lon="1.41733">
        <ele>607.511528</ele>
        <time>2022-06-14T19:52:36.977Z</time>
      </trkpt>
      <trkpt lat="46.01974" lon="1.4171">
        <ele>600.443862</ele>
        <time>2022-06-14T19:52:58.992Z</time>
      </trkpt>
      <trkpt lat="46.02056" lon="1.41722">
        <ele>592.516526</ele>
        <time>2022-06-14T19:53:19.595Z</time>
      </trkpt>
      <trkpt lat="46.02194" lon="1.41848">
        <ele>576.06996</ele>
        <time>2022-06-14T19:53:59.223Z</time>
      </trkpt>
      <trkpt lat="46.02394" lon="1.41808">
        <ele>555.146857</ele>
        <time>2022-06-14T19:54:48.221Z</time>
      </trkpt>
      <trkpt lat="46.02534" lon="1.41733">
        <ele>541.374085</ele>
        <time>2022-06-14T19:55:25.162Z</time>
      </trkpt>
      <trkpt lat="46.02592" lon="1.41662">
        <ele>535.58774</ele>
        <time>2022-06-14T19:55:44.898Z</time>
      </trkpt>
      <trkpt lat="46.026" lon="1.41738">
        <ele>531.588603</ele>
        <time>2022-06-14T19:55:58.457Z</time>
      </trkpt>
      <trkpt lat="46.02631" lon="1.41743">
        <ele>529.585421</ele>
        <time>2022-06-14T19:56:06.827Z</time>
      </trkpt>
      <trkpt lat="46.02652" lon="1.41785">
        <ele>527.464632</ele>
        <time>2022-06-14T19:56:16.863Z</time>
      </trkpt>
      <trkpt lat="46.02711" lon="1.41737">
        <ele>523.439619</ele>
        <time>2022-06-14T19:56:34.963Z</time>
      </trkpt>
      <trkpt lat="46.0275" lon="1.41808">
        <ele>520.054926</ele>
        <time>2022-06-14T19:56:43.930Z</time>
      </trkpt>
      <trkpt lat="46.02765" lon="1.4182">
        <ele>519.801337</ele>
        <time>2022-06-14T19:56:46.533Z</time>
      </trkpt>
      <trkpt lat="46.02777" lon="1.41811">
        <ele>519.612038</ele>
        <time>2022-06-14T19:56:48.437Z</time>
      </trkpt>
      <trkpt lat="46.02784" lon="1.41807">
        <ele>519.498431</ele>
        <time>2022-06-14T19:56:49.605Z</time>
      </trkpt>
      <trkpt lat="46.02802" lon="1.41798">
        <ele>519.223651</ele>
        <time>2022-06-14T19:56:52.707Z</time>
      </trkpt>
      <trkpt lat="46.02819" lon="1.41789">
        <ele>518.959861</ele>
        <time>2022-06-14T19:56:55.882Z</time>
      </trkpt>
      <trkpt lat="46.02838" lon="1.41767">
        <ele>518.596942</ele>
        <time>2022-06-14T19:57:01.893Z</time>
      </trkpt>
      <trkpt lat="46.02849" lon="1.41765">
        <ele>518.434473</ele>
        <time>2022-06-14T19:57:04.967Z</time>
      </trkpt>
      <trkpt lat="46.02857" lon="1.41768">
        <ele>518.316408</ele>
        <time>2022-06-14T19:57:07.417Z</time>
      </trkpt>
      <trkpt lat="46.02881" lon="1.4178">
        <ele>517.94915</ele>
        <time>2022-06-14T19:57:14.064Z</time>
      </trkpt>
      <trkpt lat="46.02899" lon="1.41803">
        <ele>517.596186</ele>
        <time>2022-06-14T19:57:20.975Z</time>
      </trkpt>
      <trkpt lat="46.02928" lon="1.41839">
        <ele>519.230836</ele>
        <time>2022-06-14T19:57:32.246Z</time>
      </trkpt>
      <trkpt lat="46.02939" lon="1.41851">
        <ele>519.952282</ele>
        <time>2022-06-14T19:57:37.258Z</time>
      </trkpt>
      <trkpt lat="46.02945" lon="1.4186">
        <ele>520.352151</ele>
        <time>2022-06-14T19:57:40.266Z</time>
      </trkpt>
      <trkpt lat="46.0295" lon="1.41901">
        <ele>521.788598</ele>
        <time>2022-06-14T19:57:51.765Z</time>
      </trkpt>
      <trkpt lat="46.02959" lon="1.41941">
        <ele>523.215307</ele>
        <time>2022-06-14T19:58:04.599Z</time>
      </trkpt>
      <trkpt lat="46.02964" lon="1.41955">
        <ele>523.756517</ele>
        <time>2022-06-14T19:58:09.950Z</time>
      </trkpt>
      <trkpt lat="46.02974" lon="1.41984">
        <ele>524.891535</ele>
        <time>2022-06-14T19:58:21.328Z</time>
      </trkpt>
      <trkpt lat="46.03012" lon="1.42043">
        <ele>528.238506</ele>
        <time>2022-06-14T19:58:50.926Z</time>
      </trkpt>
      <trkpt lat="46.03051" lon="1.42109">
        <ele>532.796884</ele>
        <time>2022-06-14T19:59:23.590Z</time>
      </trkpt>
      <trkpt lat="46.03054" lon="1.42128">
        <ele>533.829243</ele>
        <time>2022-06-14T19:59:30.809Z</time>
      </trkpt>
      <trkpt lat="46.03042" lon="1.42198">
        <ele>537.585078</ele>
        <time>2022-06-14T19:59:56.399Z</time>
      </trkpt>
      <trkpt lat="46.03079" lon="1.42184">
        <ele>540.372957</ele>
        <time>2022-06-14T20:00:16.077Z</time>
      </trkpt>
      <trkpt lat="46.03133" lon="1.42182">
        <ele>543.694318</ele>
        <time>2022-06-14T20:00:44.644Z</time>
      </trkpt>
      <trkpt lat="46.03159" lon="1.42159">
        <ele>545.555707</ele>
        <time>2022-06-14T20:01:00.287Z</time>
      </trkpt>
      <trkpt lat="46.03174" lon="1.42136">
        <ele>546.919969</ele>
        <time>2022-06-14T20:01:12.010Z</time>
      </trkpt>
      <trkpt lat="46.03189" lon="1.42111">
        <ele>548.320879</ele>
        <time>2022-06-14T20:01:23.399Z</time>
      </trkpt>
      <trkpt lat="46.03191" lon="1.42114">
        <ele>548.508175</ele>
        <time>2022-06-14T20:01:24.187Z</time>
      </trkpt>
      <trkpt lat="46.03231" lon="1.42052">
        <ele>551.372942</ele>
        <time>2022-06-14T20:01:39.416Z</time>
      </trkpt>
      <trkpt lat="46.03288" lon="1.42085">
        <ele>552.623712</ele>
        <time>2022-06-14T20:01:55.414Z</time>
      </trkpt>
      <trkpt lat="46.0326" lon="1.42133">
        <ele>553.509671</ele>
        <time>2022-06-14T20:02:06.745Z</time>
      </trkpt>
      <trkpt lat="46.03285" lon="1.42208">
        <ele>554.689733</ele>
        <time>2022-06-14T20:02:21.595Z</time>
      </trkpt>
      <trkpt lat="46.03289" lon="1.42204">
        <ele>554.874665</ele>
        <time>2022-06-14T20:02:22.959Z</time>
      </trkpt>
      <trkpt lat="46.033" lon="1.42231">
        <ele>555.62283</ele>
        <time>2022-06-14T20:02:31.335Z</time>
      </trkpt>
      <trkpt lat="46.03325" lon="1.42229">
        <ele>556.478243</ele>
        <time>2022-06-14T20:02:41.321Z</time>
      </trkpt>
      <trkpt lat="46.03361" lon="1.42247">
        <ele>557.831077</ele>
        <time>2022-06-14T20:02:56.656Z</time>
      </trkpt>
      <trkpt lat="46.03373" lon="1.42286">
        <ele>558.857476</ele>
        <time>2022-06-14T20:03:12.271Z</time>
      </trkpt>
      <trkpt lat="46.03396" lon="1.42289">
        <ele>559.668646</ele>
        <time>2022-06-14T20:03:25.089Z</time>
      </trkpt>
      <trkpt lat="46.03416" lon="1.42365">
        <ele>562.032961</ele>
        <time>2022-06-14T20:04:03.981Z</time>
      </trkpt>
      <trkpt lat="46.0345" lon="1.42413">
        <ele>564.609203</ele>
        <time>2022-06-14T20:04:36.643Z</time>
      </trkpt>
      <trkpt lat="46.03452" lon="1.42431">
        <ele>565.30805</ele>
        <time>2022-06-14T20:04:44.012Z</time>
      </trkpt>
      <trkpt lat="46.03453" lon="1.42431">
        <ele>565.37415</ele>
        <time>2022-06-14T20:04:44.360Z</time>
      </trkpt>
      <trkpt lat="46.03454" lon="1.42479">
        <ele>567.175246</ele>
        <time>2022-06-14T20:04:52.950Z</time>
      </trkpt>
      <trkpt lat="46.03446" lon="1.42545">
        <ele>569.727429</ele>
        <time>2022-06-14T20:05:05.121Z</time>
      </trkpt>
      <trkpt lat="46.03438" lon="1.42612">
        <ele>570.474901</ele>
        <time>2022-06-14T20:05:17.284Z</time>
      </trkpt>
      <trkpt lat="46.0342" lon="1.42729">
        <ele>569.901891</ele>
        <time>2022-06-14T20:05:38.716Z</time>
      </trkpt>
      <trkpt lat="46.03431" lon="1.42819">
        <ele>569.460887</ele>
        <time>2022-06-14T20:05:55.220Z</time>
      </trkpt>
      <trkpt lat="46.03443" lon="1.4291">
        <ele>570.912821</ele>
        <time>2022-06-14T20:06:11.717Z</time>
      </trkpt>
      <trkpt lat="46.03441" lon="1.42894">
        <ele>571.177288</ele>
        <time>2022-06-14T20:06:14.504Z</time>
      </trkpt>
      <trkpt lat="46.03528" lon="1.42805">
        <ele>573.794747</ele>
        <time>2022-06-14T20:07:12.385Z</time>
      </trkpt>
      <trkpt lat="46.03557" lon="1.42751">
        <ele>576.964985</ele>
        <time>2022-06-14T20:07:42.888Z</time>
      </trkpt>
      <trkpt lat="46.03588" lon="1.4271">
        <ele>579.899083</ele>
        <time>2022-06-14T20:08:11.668Z</time>
      </trkpt>
      <trkpt lat="46.03661" lon="1.42653">
        <ele>585.749536</ele>
        <time>2022-06-14T20:09:08.352Z</time>
      </trkpt>
      <trkpt lat="46.03692" lon="1.42614">
        <ele>588.209911</ele>
        <time>2022-06-14T20:09:35.011Z</time>
      </trkpt>
      <trkpt lat="46.03764" lon="1.42508">
        <ele>594.049591</ele>
        <time>2022-06-14T20:10:37.024Z</time>
      </trkpt>
      <trkpt lat="46.038" lon="1.42438">
        <ele>596.86538</ele>
        <time>2022-06-14T20:11:11.651Z</time>
      </trkpt>
      <trkpt lat="46.03877" lon="1.42419">
        <ele>597.945251</ele>
        <time>2022-06-14T20:11:47.800Z</time>
      </trkpt>
      <trkpt lat="46.03891" lon="1.42423">
        <ele>598.148146</ele>
        <time>2022-06-14T20:11:54.581Z</time>
      </trkpt>
      <trkpt lat="46.0391" lon="1.42429">
        <ele>598.41492</ele>
        <time>2022-06-14T20:12:00.987Z</time>
      </trkpt>
      <trkpt lat="46.03982" lon="1.42511">
        <ele>598.506329</ele>
        <time>2022-06-14T20:12:31.982Z</time>
      </trkpt>
      <trkpt lat="46.04026" lon="1.4257">
        <ele>597.493123</ele>
        <time>2022-06-14T20:12:50.510Z</time>
      </trkpt>
      <trkpt lat="46.04074" lon="1.42636">
        <ele>596.372084</ele>
        <time>2022-06-14T20:13:11.067Z</time>
      </trkpt>
      <trkpt lat="46.04157" lon="1.42674">
        <ele>596.164591</ele>
        <time>2022-06-14T20:13:40.955Z</time>
      </trkpt>
      <trkpt lat="46.04205" lon="1.4275">
        <ele>596.209219</ele>
        <time>2022-06-14T20:14:09.386Z</time>
      </trkpt>
      <trkpt lat="46.04222" lon="1.42795">
        <ele>596.231061</ele>
        <time>2022-06-14T20:14:24.132Z</time>
      </trkpt>
      <trkpt lat="46.04214" lon="1.42832">
        <ele>596.358292</ele>
        <time>2022-06-14T20:14:35.766Z</time>
      </trkpt>
      <trkpt lat="46.04214" lon="1.4294">
        <ele>596.717076</ele>
        <time>2022-06-14T20:15:06.715Z</time>
      </trkpt>
      <trkpt lat="46.04185" lon="1.43001">
        <ele>596.960702</ele>
        <time>2022-06-14T20:15:26.888Z</time>
      </trkpt>
      <trkpt lat="46.04104" lon="1.4311">
        <ele>597.129921</ele>
        <time>2022-06-14T20:16:03.671Z</time>
      </trkpt>
      <trkpt lat="46.04026" lon="1.43198">
        <ele>597.298272</ele>
        <time>2022-06-14T20:16:41.677Z</time>
      </trkpt>
      <trkpt lat="46.03998" lon="1.43243">
        <ele>599.110139</ele>
        <time>2022-06-14T20:17:01.039Z</time>
      </trkpt>
      <trkpt lat="46.04011" lon="1.43255">
        <ele>599.803116</ele>
        <time>2022-06-14T20:17:07.884Z</time>
      </trkpt>
      <trkpt lat="46.0409" lon="1.43389">
        <ele>605.135224</ele>
        <time>2022-06-14T20:17:59.866Z</time>
      </trkpt>
      <trkpt lat="46.04103" lon="1.43398">
        <ele>606.21967</ele>
        <time>2022-06-14T20:18:08.256Z</time>
      </trkpt>
      <trkpt lat="46.04117" lon="1.434">
        <ele>607.265296</ele>
        <time>2022-06-14T20:18:16.385Z</time>
      </trkpt>
      <trkpt lat="46.04168" lon="1.43364">
        <ele>611.51411</ele>
        <time>2022-06-14T20:18:47.959Z</time>
      </trkpt>
      <trkpt lat="46.04193" lon="1.43374">
        <ele>613.488263</ele>
        <time>2022-06-14T20:19:02.026Z</time>
      </trkpt>
      <trkpt lat="46.04227" lon="1.43398">
        <ele>616.286296</ele>
        <time>2022-06-14T20:19:21.561Z</time>
      </trkpt>
      <trkpt lat="46.04315" lon="1.43394">
        <ele>622.689704</ele>
        <time>2022-06-14T20:20:09.753Z</time>
      </trkpt>
      <trkpt lat="46.04341" lon="1.43383">
        <ele>624.653047</ele>
        <time>2022-06-14T20:20:25.731Z</time>
      </trkpt>
      <trkpt lat="46.0441" lon="1.43335">
        <ele>630.124706</ele>
        <time>2022-06-14T20:21:05.423Z</time>
      </trkpt>
      <trkpt lat="46.04427" lon="1.43335">
        <ele>631.345018</ele>
        <time>2022-06-14T20:21:14.582Z</time>
      </trkpt>
      <trkpt lat="46.04446" lon="1.4334">
        <ele>631.763829</ele>
        <time>2022-06-14T20:21:21.876Z</time>
      </trkpt>
      <trkpt lat="46.0448" lon="1.43368">
        <ele>632.574598</ele>
        <time>2022-06-14T20:21:36.765Z</time>
      </trkpt>
      <trkpt lat="46.04501" lon="1.43438">
        <ele>633.682849</ele>
        <time>2022-06-14T20:21:54.802Z</time>
      </trkpt>
      <trkpt lat="46.04515" lon="1.43448">
        <ele>633.996876</ele>
        <time>2022-06-14T20:21:58.122Z</time>
      </trkpt>
      <trkpt lat="46.04531" lon="1.43451">
        <ele>634.337042</ele>
        <time>2022-06-14T20:22:04.106Z</time>
      </trkpt>
      <trkpt lat="46.046" lon="1.4341">
        <ele>633.696099</ele>
        <time>2022-06-14T20:22:17.736Z</time>
      </trkpt>
      <trkpt lat="46.04622" lon="1.43409">
        <ele>632.873094</ele>
        <time>2022-06-14T20:22:21.422Z</time>
      </trkpt>
      <trkpt lat="46.04668" lon="1.43421">
        <ele>631.130732</ele>
        <time>2022-06-14T20:22:29.002Z</time>
      </trkpt>
      <trkpt lat="46.0469" lon="1.43438">
        <ele>630.191554</ele>
        <time>2022-06-14T20:22:33.016Z</time>
      </trkpt>
      <trkpt lat="46.04735" lon="1.43453">
        <ele>628.474812</ele>
        <time>2022-06-14T20:22:40.412Z</time>
      </trkpt>
      <trkpt lat="46.04751" lon="1.43446">
        <ele>627.668971</ele>
        <time>2022-06-14T20:22:43.059Z</time>
      </trkpt>
      <trkpt lat="46.0477" lon="1.43375">
        <ele>625.023544</ele>
        <time>2022-06-14T20:22:57.761Z</time>
      </trkpt>
      <trkpt lat="46.0479" lon="1.43209">
        <ele>619.188107</ele>
        <time>2022-06-14T20:23:29.682Z</time>
      </trkpt>
      <trkpt lat="46.04807" lon="1.43157">
        <ele>617.262972</ele>
        <time>2022-06-14T20:23:40.674Z</time>
      </trkpt>
      <trkpt lat="46.04844" lon="1.4307">
        <ele>613.855599</ele>
        <time>2022-06-14T20:24:00.391Z</time>
      </trkpt>
      <trkpt lat="46.04872" lon="1.43021">
        <ele>611.738966</ele>
        <time>2022-06-14T20:24:12.607Z</time>
      </trkpt>
      <trkpt lat="46.0489" lon="1.42978">
        <ele>610.091478</ele>
        <time>2022-06-14T20:24:22.320Z</time>
      </trkpt>
      <trkpt lat="46.04921" lon="1.42935">
        <ele>608.229939</ele>
        <time>2022-06-14T20:24:34.021Z</time>
      </trkpt>
      <trkpt lat="46.04922" lon="1.42838">
        <ele>605.257168</ele>
        <time>2022-06-14T20:24:52.972Z</time>
      </trkpt>
      <trkpt lat="46.04923" lon="1.42785">
        <ele>603.653397</ele>
        <time>2022-06-14T20:25:03.290Z</time>
      </trkpt>
      <trkpt lat="46.04882" lon="1.42693">
        <ele>601.080729</ele>
        <time>2022-06-14T20:25:25.330Z</time>
      </trkpt>
      <trkpt lat="46.04805" lon="1.42608">
        <ele>598.074578</ele>
        <time>2022-06-14T20:25:54.378Z</time>
      </trkpt>
      <trkpt lat="46.04782" lon="1.42561">
        <ele>596.953755</ele>
        <time>2022-06-14T20:26:06.676Z</time>
      </trkpt>
      <trkpt lat="46.04763" lon="1.42489">
        <ele>595.648697</ele>
        <time>2022-06-14T20:26:23.617Z</time>
      </trkpt>
      <trkpt lat="46.04757" lon="1.42492">
        <ele>595.490394</ele>
        <time>2022-06-14T20:26:25.296Z</time>
      </trkpt>
      <trkpt lat="46.04759" lon="1.42417">
        <ele>594.219903</ele>
        <time>2022-06-14T20:26:38.822Z</time>
      </trkpt>
      <trkpt lat="46.04763" lon="1.42333">
        <ele>592.614743</ele>
        <time>2022-06-14T20:26:53.902Z</time>
      </trkpt>
      <trkpt lat="46.04767" lon="1.42249">
        <ele>589.3182</ele>
        <time>2022-06-14T20:27:08.987Z</time>
      </trkpt>
      <trkpt lat="46.04764" lon="1.42153">
        <ele>585.558763</ele>
        <time>2022-06-14T20:27:26.208Z</time>
      </trkpt>
      <trkpt lat="46.04752" lon="1.42078">
        <ele>582.487254</ele>
        <time>2022-06-14T20:27:40.090Z</time>
      </trkpt>
      <trkpt lat="46.04739" lon="1.42003">
        <ele>578.906214</ele>
        <time>2022-06-14T20:27:53.970Z</time>
      </trkpt>
      <trkpt lat="46.04744" lon="1.42002">
        <ele>578.589056</ele>
        <time>2022-06-14T20:27:55.204Z</time>
      </trkpt>
      <trkpt lat="46.04737" lon="1.41931">
        <ele>575.233877</ele>
        <time>2022-06-14T20:28:07.906Z</time>
      </trkpt>
      <trkpt lat="46.04706" lon="1.41879">
        <ele>572.054853</ele>
        <time>2022-06-14T20:28:20.440Z</time>
      </trkpt>
      <trkpt lat="46.047" lon="1.41805">
        <ele>571.013526</ele>
        <time>2022-06-14T20:28:35.486Z</time>
      </trkpt>
      <trkpt lat="46.04696" lon="1.41792">
        <ele>571.096609</ele>
        <time>2022-06-14T20:28:38.887Z</time>
      </trkpt>
      <trkpt lat="46.04702" lon="1.41773">
        <ele>571.2218</ele>
        <time>2022-06-14T20:28:43.835Z</time>
      </trkpt>
      <trkpt lat="46.04715" lon="1.41752">
        <ele>571.386144</ele>
        <time>2022-06-14T20:28:50.372Z</time>
      </trkpt>
      <trkpt lat="46.04715" lon="1.4174">
        <ele>571.458527</ele>
        <time>2022-06-14T20:28:53.522Z</time>
      </trkpt>
      <trkpt lat="46.04728" lon="1.41724">
        <ele>571.602028</ele>
        <time>2022-06-14T20:28:59.089Z</time>
      </trkpt>
      <trkpt lat="46.04741" lon="1.41723">
        <ele>571.71057</ele>
        <time>2022-06-14T20:29:04.362Z</time>
      </trkpt>
      <trkpt lat="46.0475" lon="1.41725">
        <ele>571.784943</ele>
        <time>2022-06-14T20:29:07.132Z</time>
      </trkpt>
      <trkpt lat="46.04885" lon="1.41693">
        <ele>575.115252</ele>
        <time>2022-06-14T20:29:58.796Z</time>
      </trkpt>
      <trkpt lat="46.04928" lon="1.41696">
        <ele>576.609863</ele>
        <time>2022-06-14T20:30:15.078Z</time>
      </trkpt>
      <trkpt lat="46.05029" lon="1.41673">
        <ele>579.741951</ele>
        <time>2022-06-14T20:30:50.787Z</time>
      </trkpt>
      <trkpt lat="46.05022" lon="1.41643">
        <ele>580.297346</ele>
        <time>2022-06-14T20:31:01.498Z</time>
      </trkpt>
      <trkpt lat="46.04994" lon="1.41574">
        <ele>581.658805</ele>
        <time>2022-06-14T20:31:26.477Z</time>
      </trkpt>
      <trkpt lat="46.05012" lon="1.41552">
        <ele>582.244272</ele>
        <time>2022-06-14T20:31:37.569Z</time>
      </trkpt>
      <trkpt lat="46.05013" lon="1.41536">
        <ele>582.51556</ele>
        <time>2022-06-14T20:31:42.532Z</time>
      </trkpt>
      <trkpt lat="46.05006" lon="1.4149">
        <ele>583.027975</ele>
        <time>2022-06-14T20:31:58.031Z</time>
      </trkpt>
      <trkpt lat="46.05034" lon="1.41432">
        <ele>583.019836</ele>
        <time>2022-06-14T20:32:19.995Z</time>
      </trkpt>
      <trkpt lat="46.05036" lon="1.41417">
        <ele>583.018143</ele>
        <time>2022-06-14T20:32:23.968Z</time>
      </trkpt>
      <trkpt lat="46.05032" lon="1.41392">
        <ele>583.015075</ele>
        <time>2022-06-14T20:32:31.236Z</time>
      </trkpt>
      <trkpt lat="46.05012" lon="1.41362">
        <ele>583.010405</ele>
        <time>2022-06-14T20:32:41.514Z</time>
      </trkpt>
      <trkpt lat="46.05007" lon="1.41296">
        <ele>583.002732</ele>
        <time>2022-06-14T20:32:56.830Z</time>
      </trkpt>
      <trkpt lat="46.05002" lon="1.41158">
        <ele>579.014868</ele>
        <time>2022-06-14T20:33:24.933Z</time>
      </trkpt>
      <trkpt lat="46.04996" lon="1.41128">
        <ele>577.946276</ele>
        <time>2022-06-14T20:33:30.842Z</time>
      </trkpt>
      <trkpt lat="46.04981" lon="1.41105">
        <ele>576.878346</ele>
        <time>2022-06-14T20:33:36.588Z</time>
      </trkpt>
      <trkpt lat="46.04959" lon="1.41093">
        <ele>575.689048</ele>
        <time>2022-06-14T20:33:42.844Z</time>
      </trkpt>
      <trkpt lat="46.04947" lon="1.41076">
        <ele>574.850277</ele>
        <time>2022-06-14T20:33:47.202Z</time>
      </trkpt>
      <trkpt lat="46.04965" lon="1.40961">
        <ele>569.257758</ele>
        <time>2022-06-14T20:34:08.166Z</time>
      </trkpt>
      <trkpt lat="46.04966" lon="1.40928">
        <ele>567.590941</ele>
        <time>2022-06-14T20:34:14.014Z</time>
      </trkpt>
      <trkpt lat="46.04959" lon="1.40903">
        <ele>566.243463</ele>
        <time>2022-06-14T20:34:18.753Z</time>
      </trkpt>
      <trkpt lat="46.04917" lon="1.40866">
        <ele>562.63463</ele>
        <time>2022-06-14T20:34:31.522Z</time>
      </trkpt>
      <trkpt lat="46.04864" lon="1.40807">
        <ele>558.37002</ele>
        <time>2022-06-14T20:34:48.953Z</time>
      </trkpt>
      <trkpt lat="46.04859" lon="1.4078">
        <ele>557.210804</ele>
        <time>2022-06-14T20:34:54.101Z</time>
      </trkpt>
      <trkpt lat="46.04866" lon="1.40541">
        <ele>547.600129</ele>
        <time>2022-06-14T20:35:38.927Z</time>
      </trkpt>
      <trkpt lat="46.04872" lon="1.40484">
        <ele>545.417588</ele>
        <time>2022-06-14T20:35:49.649Z</time>
      </trkpt>
      <trkpt lat="46.04872" lon="1.4039">
        <ele>541.850839</ele>
        <time>2022-06-14T20:36:07.271Z</time>
      </trkpt>
      <trkpt lat="46.04877" lon="1.4035">
        <ele>540.373272</ele>
        <time>2022-06-14T20:36:15.079Z</time>
      </trkpt>
      <trkpt lat="46.04873" lon="1.4031">
        <ele>539.223716</ele>
        <time>2022-06-14T20:36:23.012Z</time>
      </trkpt>
      <trkpt lat="46.04866" lon="1.40289">
        <ele>538.560303</ele>
        <time>2022-06-14T20:36:27.316Z</time>
      </trkpt>
      <trkpt lat="46.04854" lon="1.40262">
        <ele>537.671733</ele>
        <time>2022-06-14T20:36:33.680Z</time>
      </trkpt>
      <trkpt lat="46.04851" lon="1.40237">
        <ele>536.927995</ele>
        <time>2022-06-14T20:36:38.626Z</time>
      </trkpt>
      <trkpt lat="46.0488" lon="1.40125">
        <ele>533.551304</ele>
        <time>2022-06-14T20:36:52.439Z</time>
      </trkpt>
      <trkpt lat="46.04926" lon="1.40047">
        <ele>532.203116</ele>
        <time>2022-06-14T20:37:04.994Z</time>
      </trkpt>
      <trkpt lat="46.04938" lon="1.40028">
        <ele>531.930949</ele>
        <time>2022-06-14T20:37:08.380Z</time>
      </trkpt>
      <trkpt lat="46.04974" lon="1.39919">
        <ele>530.629442</ele>
        <time>2022-06-14T20:37:25.130Z</time>
      </trkpt>
      <trkpt lat="46.04973" lon="1.39896">
        <ele>530.382847</ele>
        <time>2022-06-14T20:37:28.769Z</time>
      </trkpt>
      <trkpt lat="46.04981" lon="1.39863">
        <ele>530.664735</ele>
        <time>2022-06-14T20:37:34.446Z</time>
      </trkpt>
      <trkpt lat="46.0501" lon="1.39776">
        <ele>531.488532</ele>
        <time>2022-06-14T20:37:52.302Z</time>
      </trkpt>
      <trkpt lat="46.05029" lon="1.39738">
        <ele>531.89213</ele>
        <time>2022-06-14T20:38:02.010Z</time>
      </trkpt>
      <trkpt lat="46.05073" lon="1.39672">
        <ele>532.739301</ele>
        <time>2022-06-14T20:38:21.938Z</time>
      </trkpt>
      <trkpt lat="46.05165" lon="1.39601">
        <ele>534.977552</ele>
        <time>2022-06-14T20:38:59.157Z</time>
      </trkpt>
      <trkpt lat="46.0519" lon="1.39594">
        <ele>535.545275</ele>
        <time>2022-06-14T20:39:07.135Z</time>
      </trkpt>
      <trkpt lat="46.0522" lon="1.39594">
        <ele>536.174392</ele>
        <time>2022-06-14T20:39:15.550Z</time>
      </trkpt>
      <trkpt lat="46.05267" lon="1.39618">
        <ele>535.785404</ele>
        <time>2022-06-14T20:39:28.637Z</time>
      </trkpt>
      <trkpt lat="46.05293" lon="1.39609">
        <ele>535.278303</ele>
        <time>2022-06-14T20:39:33.892Z</time>
      </trkpt>
      <trkpt lat="46.05332" lon="1.39492">
        <ele>533.5901</ele>
        <time>2022-06-14T20:39:49.938Z</time>
      </trkpt>
      <trkpt lat="46.05331" lon="1.39325">
        <ele>529.672534</ele>
        <time>2022-06-14T20:40:08.797Z</time>
      </trkpt>
      <trkpt lat="46.05289" lon="1.39214">
        <ele>526.304396</ele>
        <time>2022-06-14T20:40:34.282Z</time>
      </trkpt>
      <trkpt lat="46.0527" lon="1.39174">
        <ele>524.445307</ele>
        <time>2022-06-14T20:40:44.349Z</time>
      </trkpt>
      <trkpt lat="46.05205" lon="1.39">
        <ele>516.761564</ele>
        <time>2022-06-14T20:41:21.886Z</time>
      </trkpt>
      <trkpt lat="46.05111" lon="1.38867">
        <ele>502.474475</ele>
        <time>2022-06-14T20:41:53.730Z</time>
      </trkpt>
      <trkpt lat="46.05093" lon="1.38852">
        <ele>500.110856</ele>
        <time>2022-06-14T20:41:58.583Z</time>
      </trkpt>
      <trkpt lat="46.05063" lon="1.38847">
        <ele>496.665818</ele>
        <time>2022-06-14T20:42:05.699Z</time>
      </trkpt>
      <trkpt lat="46.04975" lon="1.388">
        <ele>487.502205</ele>
        <time>2022-06-14T20:42:27.585Z</time>
      </trkpt>
      <trkpt lat="46.04925" lon="1.38728">
        <ele>480.544441</ele>
        <time>2022-06-14T20:42:45.587Z</time>
      </trkpt>
      <trkpt lat="46.04919" lon="1.38705">
        <ele>478.915333</ele>
        <time>2022-06-14T20:42:50.121Z</time>
      </trkpt>
      <trkpt lat="46.04923" lon="1.38661">
        <ele>478.231292</ele>
        <time>2022-06-14T20:42:58.956Z</time>
      </trkpt>
      <trkpt lat="46.04924" lon="1.38657">
        <ele>478.230014</ele>
        <time>2022-06-14T20:42:59.855Z</time>
      </trkpt>
      <trkpt lat="46.0493" lon="1.38606">
        <ele>478.214143</ele>
        <time>2022-06-14T20:43:11.247Z</time>
      </trkpt>
      <trkpt lat="46.04933" lon="1.38577">
        <ele>478.204976</ele>
        <time>2022-06-14T20:43:19.042Z</time>
      </trkpt>
      <trkpt lat="46.0495" lon="1.38544">
        <ele>478.192209</ele>
        <time>2022-06-14T20:43:30.920Z</time>
      </trkpt>
      <trkpt lat="46.04976" lon="1.38421">
        <ele>478.732791</ele>
        <time>2022-06-14T20:44:15.723Z</time>
      </trkpt>
      <trkpt lat="46.05064" lon="1.38289">
        <ele>482.126326</ele>
        <time>2022-06-14T20:45:18.120Z</time>
      </trkpt>
      <trkpt lat="46.0508" lon="1.38241">
        <ele>483.020293</ele>
        <time>2022-06-14T20:45:34.166Z</time>
      </trkpt>
      <trkpt lat="46.05101" lon="1.38223">
        <ele>483.24667</ele>
        <time>2022-06-14T20:45:44.054Z</time>
      </trkpt>
      <trkpt lat="46.05145" lon="1.38215">
        <ele>483.674555</ele>
        <time>2022-06-14T20:46:02.918Z</time>
      </trkpt>
      <trkpt lat="46.0515" lon="1.38203">
        <ele>483.767655</ele>
        <time>2022-06-14T20:46:06.600Z</time>
      </trkpt>
      <trkpt lat="46.05149" lon="1.38202">
        <ele>483.775398</ele>
        <time>2022-06-14T20:46:06.810Z</time>
      </trkpt>
      <trkpt lat="46.05175" lon="1.38168">
        <ele>484.111154</ele>
        <time>2022-06-14T20:46:15.944Z</time>
      </trkpt>
      <trkpt lat="46.05228" lon="1.38157">
        <ele>484.613801</ele>
        <time>2022-06-14T20:46:29.617Z</time>
      </trkpt>
      <trkpt lat="46.05241" lon="1.38112">
        <ele>484.274462</ele>
        <time>2022-06-14T20:46:38.407Z</time>
      </trkpt>
      <trkpt lat="46.05192" lon="1.38021">
        <ele>483.096479</ele>
        <time>2022-06-14T20:46:59.163Z</time>
      </trkpt>
      <trkpt lat="46.05179" lon="1.3801">
        <ele>482.882767</ele>
        <time>2022-06-14T20:47:02.928Z</time>
      </trkpt>
      <trkpt lat="46.05179" lon="1.3801">
        <ele>482.882767</ele>
        <time>2022-06-14T20:47:02.944Z</time>
      </trkpt>
      <trkpt lat="46.05155" lon="1.38009">
        <ele>482.530108</ele>
        <time>2022-06-14T20:47:10.380Z</time>
      </trkpt>
      <trkpt lat="46.05141" lon="1.38015">
        <ele>482.314994</ele>
        <time>2022-06-14T20:47:15.004Z</time>
      </trkpt>
      <trkpt lat="46.05105" lon="1.3801">
        <ele>480.773874</ele>
        <time>2022-06-14T20:47:25.541Z</time>
      </trkpt>
      <trkpt lat="46.05013" lon="1.38046">
        <ele>473.818177</ele>
        <time>2022-06-14T20:47:50.319Z</time>
      </trkpt>
      <trkpt lat="46.04947" lon="1.38027">
        <ele>468.882292</ele>
        <time>2022-06-14T20:48:07.095Z</time>
      </trkpt>
      <trkpt lat="46.04851" lon="1.38027">
        <ele>459.276906</ele>
        <time>2022-06-14T20:48:30.364Z</time>
      </trkpt>
      <trkpt lat="46.04829" lon="1.38009">
        <ele>456.779048</ele>
        <time>2022-06-14T20:48:36.452Z</time>
      </trkpt>
      <trkpt lat="46.04794" lon="1.38018">
        <ele>453.253688</ele>
        <time>2022-06-14T20:48:45.117Z</time>
      </trkpt>
      <trkpt lat="46.04752" lon="1.38065">
        <ele>449.171716</ele>
        <time>2022-06-14T20:48:58.519Z</time>
      </trkpt>
      <trkpt lat="46.04712" lon="1.38123">
        <ele>445.866637</ele>
        <time>2022-06-14T20:49:13.292Z</time>
      </trkpt>
      <trkpt lat="46.04659" lon="1.38164">
        <ele>442.327858</ele>
        <time>2022-06-14T20:49:29.812Z</time>
      </trkpt>
      <trkpt lat="46.04644" lon="1.38169">
        <ele>441.436953</ele>
        <time>2022-06-14T20:49:34.161Z</time>
      </trkpt>
      <trkpt lat="46.04587" lon="1.38138">
        <ele>439.43716</ele>
        <time>2022-06-14T20:49:52.601Z</time>
      </trkpt>
      <trkpt lat="46.04563" lon="1.38134">
        <ele>438.908507</ele>
        <time>2022-06-14T20:50:00.008Z</time>
      </trkpt>
      <trkpt lat="46.04553" lon="1.38122">
        <ele>438.612158</ele>
        <time>2022-06-14T20:50:04.288Z</time>
      </trkpt>
      <trkpt lat="46.04551" lon="1.38089">
        <ele>438.094966</ele>
        <time>2022-06-14T20:50:11.649Z</time>
      </trkpt>
      <trkpt lat="46.04511" lon="1.38002">
        <ele>436.494428</ele>
        <time>2022-06-14T20:50:34.792Z</time>
      </trkpt>
      <trkpt lat="46.04503" lon="1.37971">
        <ele>436.208606</ele>
        <time>2022-06-14T20:50:42.270Z</time>
      </trkpt>
      <trkpt lat="46.04496" lon="1.379">
        <ele>435.672617</ele>
        <time>2022-06-14T20:50:58.681Z</time>
      </trkpt>
      <trkpt lat="46.04487" lon="1.37885">
        <ele>435.524679</ele>
        <time>2022-06-14T20:51:03.270Z</time>
      </trkpt>
      <trkpt lat="46.04477" lon="1.37878">
        <ele>435.397296</ele>
        <time>2022-06-14T20:51:07.253Z</time>
      </trkpt>
      <trkpt lat="46.04454" lon="1.37821">
        <ele>434.912804</ele>
        <time>2022-06-14T20:51:22.476Z</time>
      </trkpt>
      <trkpt lat="46.04431" lon="1.37799">
        <ele>434.608405</ele>
        <time>2022-06-14T20:51:32.231Z</time>
      </trkpt>
      <trkpt lat="46.04399" lon="1.37757">
        <ele>434.453811</ele>
        <time>2022-06-14T20:51:47.418Z</time>
      </trkpt>
      <trkpt lat="46.04349" lon="1.37716">
        <ele>434.401447</ele>
        <time>2022-06-14T20:52:08.057Z</time>
      </trkpt>
      <trkpt lat="46.04333" lon="1.37687">
        <ele>434.377815</ele>
        <time>2022-06-14T20:52:17.163Z</time>
      </trkpt>
      <trkpt lat="46.04278" lon="1.37557">
        <ele>434.894938</ele>
        <time>2022-06-14T20:52:57.840Z</time>
      </trkpt>
      <trkpt lat="46.0426" lon="1.37525">
        <ele>435.309093</ele>
        <time>2022-06-14T20:53:10.770Z</time>
      </trkpt>
      <trkpt lat="46.04255" lon="1.37521">
        <ele>435.377733</ele>
        <time>2022-06-14T20:53:13.015Z</time>
      </trkpt>
      <trkpt lat="46.04201" lon="1.37472">
        <ele>436.294705</ele>
        <time>2022-06-14T20:53:41.777Z</time>
      </trkpt>
      <trkpt lat="46.04185" lon="1.37468">
        <ele>436.531595</ele>
        <time>2022-06-14T20:53:49.928Z</time>
      </trkpt>
      <trkpt lat="46.04162" lon="1.37472">
        <ele>436.856982</ele>
        <time>2022-06-14T20:53:58.857Z</time>
      </trkpt>
      <trkpt lat="46.04156" lon="1.37494">
        <ele>437.085993</ele>
        <time>2022-06-14T20:54:06.764Z</time>
      </trkpt>
      <trkpt lat="46.04149" lon="1.37503">
        <ele>437.21503</ele>
        <time>2022-06-14T20:54:10.326Z</time>
      </trkpt>
      <trkpt lat="46.04137" lon="1.37483">
        <ele>437.467924</ele>
        <time>2022-06-14T20:54:17.732Z</time>
      </trkpt>
      <trkpt lat="46.04128" lon="1.37497">
        <ele>437.642774</ele>
        <time>2022-06-14T20:54:23.276Z</time>
      </trkpt>
      <trkpt lat="46.04054" lon="1.37496">
        <ele>438.666924</ele>
        <time>2022-06-14T20:54:55.468Z</time>
      </trkpt>
      <trkpt lat="46.03953" lon="1.37532">
        <ele>440.704555</ele>
        <time>2022-06-14T20:55:38.154Z</time>
      </trkpt>
      <trkpt lat="46.0394" lon="1.37573">
        <ele>441.487789</ele>
        <time>2022-06-14T20:55:51.183Z</time>
      </trkpt>
      <trkpt lat="46.0394" lon="1.37601">
        <ele>441.976116</ele>
        <time>2022-06-14T20:55:59.140Z</time>
      </trkpt>
      <trkpt lat="46.03925" lon="1.37623">
        <ele>442.515961</ele>
        <time>2022-06-14T20:56:09.426Z</time>
      </trkpt>
      <trkpt lat="46.03903" lon="1.37626">
        <ele>443.06626</ele>
        <time>2022-06-14T20:56:21.641Z</time>
      </trkpt>
      <trkpt lat="46.03879" lon="1.37644">
        <ele>443.728588</ele>
        <time>2022-06-14T20:56:37.146Z</time>
      </trkpt>
      <trkpt lat="46.0387" lon="1.37676">
        <ele>444.63642</ele>
        <time>2022-06-14T20:56:51.538Z</time>
      </trkpt>
      <trkpt lat="46.03844" lon="1.3768">
        <ele>445.704825</ele>
        <time>2022-06-14T20:57:07.018Z</time>
      </trkpt>
      <trkpt lat="46.03818" lon="1.37644">
        <ele>447.195422</ele>
        <time>2022-06-14T20:57:27.264Z</time>
      </trkpt>
      <trkpt lat="46.03796" lon="1.37668">
        <ele>448.304551</ele>
        <time>2022-06-14T20:57:42.181Z</time>
      </trkpt>
      <trkpt lat="46.03752" lon="1.37684">
        <ele>450.156575</ele>
        <time>2022-06-14T20:57:58.262Z</time>
      </trkpt>
      <trkpt lat="46.03726" lon="1.37665">
        <ele>451.231943</ele>
        <time>2022-06-14T20:58:08.622Z</time>
      </trkpt>
      <trkpt lat="46.03721" lon="1.37647">
        <ele>451.136919</ele>
        <time>2022-06-14T20:58:12.663Z</time>
      </trkpt>
      <trkpt lat="46.03727" lon="1.37584">
        <ele>450.820286</ele>
        <time>2022-06-14T20:58:26.663Z</time>
      </trkpt>
      <trkpt lat="46.03725" lon="1.37572">
        <ele>450.757731</ele>
        <time>2022-06-14T20:58:29.496Z</time>
      </trkpt>
      <trkpt lat="46.0372" lon="1.37561">
        <ele>450.690691</ele>
        <time>2022-06-14T20:58:32.243Z</time>
      </trkpt>
      <trkpt lat="46.03687" lon="1.3753">
        <ele>450.411003</ele>
        <time>2022-06-14T20:58:39.616Z</time>
      </trkpt>
      <trkpt lat="46.03682" lon="1.37515">
        <ele>450.328243</ele>
        <time>2022-06-14T20:58:41.500Z</time>
      </trkpt>
      <trkpt lat="46.03683" lon="1.37502">
        <ele>450.263523</ele>
        <time>2022-06-14T20:58:42.907Z</time>
      </trkpt>
      <trkpt lat="46.03728" lon="1.37402">
        <ele>448.000573</ele>
        <time>2022-06-14T20:58:55.593Z</time>
      </trkpt>
      <trkpt lat="46.03731" lon="1.37383">
        <ele>447.356513</ele>
        <time>2022-06-14T20:58:57.553Z</time>
      </trkpt>
      <trkpt lat="46.03722" lon="1.37256">
        <ele>443.080332</ele>
        <time>2022-06-14T20:59:10.578Z</time>
      </trkpt>
      <trkpt lat="46.03744" lon="1.37157">
        <ele>441.196711</ele>
        <time>2022-06-14T20:59:22.251Z</time>
      </trkpt>
      <trkpt lat="46.03724" lon="1.37128">
        <ele>441.114415</ele>
        <time>2022-06-14T20:59:31.413Z</time>
      </trkpt>
      <trkpt lat="46.03641" lon="1.37076">
        <ele>440.854811</ele>
        <time>2022-06-14T21:00:06.288Z</time>
      </trkpt>
      <trkpt lat="46.0359" lon="1.37069">
        <ele>441.52772</ele>
        <time>2022-06-14T21:00:32.078Z</time>
      </trkpt>
      <trkpt lat="46.03536" lon="1.37027">
        <ele>443.291047</ele>
        <time>2022-06-14T21:01:04.146Z</time>
      </trkpt>
      <trkpt lat="46.03531" lon="1.37011">
        <ele>443.637121</ele>
        <time>2022-06-14T21:01:09.927Z</time>
      </trkpt>
      <trkpt lat="46.03548" lon="1.36963">
        <ele>444.709241</ele>
        <time>2022-06-14T21:01:26.831Z</time>
      </trkpt>
      <trkpt lat="46.03511" lon="1.36877">
        <ele>447.278289</ele>
        <time>2022-06-14T21:01:59.222Z</time>
      </trkpt>
      <trkpt lat="46.03523" lon="1.36848">
        <ele>448.447758</ele>
        <time>2022-06-14T21:02:12.633Z</time>
      </trkpt>
      <trkpt lat="46.03559" lon="1.36802">
        <ele>450.77729</ele>
        <time>2022-06-14T21:02:39.126Z</time>
      </trkpt>
      <trkpt lat="46.03565" lon="1.36757">
        <ele>452.364033</ele>
        <time>2022-06-14T21:02:58.928Z</time>
      </trkpt>
      <trkpt lat="46.03499" lon="1.36761">
        <ele>455.700974</ele>
        <time>2022-06-14T21:03:40.139Z</time>
      </trkpt>
      <trkpt lat="46.03456" lon="1.36746">
        <ele>458.222696</ele>
        <time>2022-06-14T21:04:08.343Z</time>
      </trkpt>
      <trkpt lat="46.03426" lon="1.36744">
        <ele>459.867926</ele>
        <time>2022-06-14T21:04:27.764Z</time>
      </trkpt>
      <trkpt lat="46.03384" lon="1.36765">
        <ele>462.376435</ele>
        <time>2022-06-14T21:04:56.404Z</time>
      </trkpt>
      <trkpt lat="46.03332" lon="1.36804">
        <ele>464.830065</ele>
        <time>2022-06-14T21:05:26.600Z</time>
      </trkpt>
      <trkpt lat="46.03296" lon="1.36815">
        <ele>464.807364</ele>
        <time>2022-06-14T21:05:42.654Z</time>
      </trkpt>
      <trkpt lat="46.03256" lon="1.36858">
        <ele>464.775825</ele>
        <time>2022-06-14T21:06:01.970Z</time>
      </trkpt>
      <trkpt lat="46.0325" lon="1.36867">
        <ele>464.770578</ele>
        <time>2022-06-14T21:06:04.771Z</time>
      </trkpt>
      <trkpt lat="46.03213" lon="1.36928">
        <ele>464.735494</ele>
        <time>2022-06-14T21:06:22.612Z</time>
      </trkpt>
      <trkpt lat="46.03181" lon="1.37021">
        <ele>462.494849</ele>
        <time>2022-06-14T21:06:43.316Z</time>
      </trkpt>
      <trkpt lat="46.03169" lon="1.37015">
        <ele>462.012175</ele>
        <time>2022-06-14T21:06:46.871Z</time>
      </trkpt>
      <trkpt lat="46.03148" lon="1.37009">
        <ele>461.175061</ele>
        <time>2022-06-14T21:06:51.488Z</time>
      </trkpt>
      <trkpt lat="46.0314" lon="1.36986">
        <ele>460.475856</ele>
        <time>2022-06-14T21:06:55.436Z</time>
      </trkpt>
      <trkpt lat="46.03134" lon="1.36998">
        <ele>460.085643</ele>
        <time>2022-06-14T21:06:57.049Z</time>
      </trkpt>
      <trkpt lat="46.03113" lon="1.36984">
        <ele>459.190864</ele>
        <time>2022-06-14T21:07:00.917Z</time>
      </trkpt>
      <trkpt lat="46.03099" lon="1.36973">
        <ele>458.560689</ele>
        <time>2022-06-14T21:07:03.539Z</time>
      </trkpt>
      <trkpt lat="46.03107" lon="1.36871">
        <ele>455.968334</ele>
        <time>2022-06-14T21:07:15.155Z</time>
      </trkpt>
      <trkpt lat="46.03169" lon="1.36804">
        <ele>453.231827</ele>
        <time>2022-06-14T21:07:28.149Z</time>
      </trkpt>
      <trkpt lat="46.03175" lon="1.36782">
        <ele>452.631261</ele>
        <time>2022-06-14T21:07:31.192Z</time>
      </trkpt>
      <trkpt lat="46.03174" lon="1.36766">
        <ele>452.237623</ele>
        <time>2022-06-14T21:07:33.065Z</time>
      </trkpt>
      <trkpt lat="46.03161" lon="1.36734">
        <ele>451.338351</ele>
        <time>2022-06-14T21:07:37.613Z</time>
      </trkpt>
      <trkpt lat="46.03151" lon="1.3672">
        <ele>450.939195</ele>
        <time>2022-06-14T21:07:39.906Z</time>
      </trkpt>
      <trkpt lat="46.03066" lon="1.36672">
        <ele>448.200997</ele>
        <time>2022-06-14T21:07:55.935Z</time>
      </trkpt>
      <trkpt lat="46.03062" lon="1.36659">
        <ele>447.91164</ele>
        <time>2022-06-14T21:07:57.550Z</time>
      </trkpt>
      <trkpt lat="46.03063" lon="1.36642">
        <ele>447.558383</ele>
        <time>2022-06-14T21:07:59.528Z</time>
      </trkpt>
      <trkpt lat="46.03107" lon="1.36594">
        <ele>445.918264</ele>
        <time>2022-06-14T21:08:09.207Z</time>
      </trkpt>
      <trkpt lat="46.03168" lon="1.36475">
        <ele>442.853898</ele>
        <time>2022-06-14T21:08:27.130Z</time>
      </trkpt>
      <trkpt lat="46.03212" lon="1.36497">
        <ele>441.486833</ele>
        <time>2022-06-14T21:08:34.998Z</time>
      </trkpt>
      <trkpt lat="46.03262" lon="1.36406">
        <ele>439.569002</ele>
        <time>2022-06-14T21:08:48.856Z</time>
      </trkpt>
      <trkpt lat="46.03274" lon="1.36356">
        <ele>438.806961</ele>
        <time>2022-06-14T21:08:55.160Z</time>
      </trkpt>
      <trkpt lat="46.03291" lon="1.36333">
        <ele>438.305584</ele>
        <time>2022-06-14T21:08:59.105Z</time>
      </trkpt>
      <trkpt lat="46.033" lon="1.36287">
        <ele>437.615432</ele>
        <time>2022-06-14T21:09:05.174Z</time>
      </trkpt>
      <trkpt lat="46.0332" lon="1.36266">
        <ele>437.094278</ele>
        <time>2022-06-14T21:09:10.959Z</time>
      </trkpt>
      <trkpt lat="46.03335" lon="1.36274">
        <ele>437.499523</ele>
        <time>2022-06-14T21:09:13.892Z</time>
      </trkpt>
      <trkpt lat="46.03356" lon="1.3627">
        <ele>438.810026</ele>
        <time>2022-06-14T21:09:24.589Z</time>
      </trkpt>
      <trkpt lat="46.03373" lon="1.36254">
        <ele>440.061182</ele>
        <time>2022-06-14T21:09:34.032Z</time>
      </trkpt>
      <trkpt lat="46.03375" lon="1.3623">
        <ele>441.102117</ele>
        <time>2022-06-14T21:09:43.517Z</time>
      </trkpt>
      <trkpt lat="46.03386" lon="1.36231">
        <ele>441.796379</ele>
        <time>2022-06-14T21:09:46.455Z</time>
      </trkpt>
      <trkpt lat="46.03401" lon="1.36214">
        <ele>442.932842</ele>
        <time>2022-06-14T21:09:51.275Z</time>
      </trkpt>
      <trkpt lat="46.0345" lon="1.36175">
        <ele>446.37578</ele>
        <time>2022-06-14T21:10:05.880Z</time>
      </trkpt>
      <trkpt lat="46.03443" lon="1.36131">
        <ele>448.787777</ele>
        <time>2022-06-14T21:10:14.111Z</time>
      </trkpt>
      <trkpt lat="46.03399" lon="1.36067">
        <ele>457.573878</ele>
        <time>2022-06-14T21:10:30.337Z</time>
      </trkpt>
      <trkpt lat="46.03395" lon="1.36074">
        <ele>458.461585</ele>
        <time>2022-06-14T21:10:31.978Z</time>
      </trkpt>
      <trkpt lat="46.03395" lon="1.36074">
        <ele>458.461585</ele>
        <time>2022-06-14T21:10:32.011Z</time>
      </trkpt>
      <trkpt lat="46.03346" lon="1.3599">
        <ele>469.242439</ele>
        <time>2022-06-14T21:11:46.893Z</time>
      </trkpt>
      <trkpt lat="46.03359" lon="1.35949">
        <ele>473.646551</ele>
        <time>2022-06-14T21:12:17.077Z</time>
      </trkpt>
      <trkpt lat="46.03358" lon="1.35939">
        <ele>474.44823</ele>
        <time>2022-06-14T21:12:24.197Z</time>
      </trkpt>
      <trkpt lat="46.03311" lon="1.35864">
        <ele>482.738042</ele>
        <time>2022-06-14T21:13:30.601Z</time>
      </trkpt>
      <trkpt lat="46.03275" lon="1.35829">
        <ele>487.830414</ele>
        <time>2022-06-14T21:14:07.128Z</time>
      </trkpt>
      <trkpt lat="46.03241" lon="1.35804">
        <ele>492.349001</ele>
        <time>2022-06-14T21:14:36.221Z</time>
      </trkpt>
      <trkpt lat="46.03193" lon="1.35786">
        <ele>495.706028</ele>
        <time>2022-06-14T21:15:10.224Z</time>
      </trkpt>
      <trkpt lat="46.03126" lon="1.35792">
        <ele>498.014335</ele>
        <time>2022-06-14T21:15:47.636Z</time>
      </trkpt>
      <trkpt lat="46.03043" lon="1.35789">
        <ele>500.848823</ele>
        <time>2022-06-14T21:16:21.087Z</time>
      </trkpt>
      <trkpt lat="46.03003" lon="1.35774">
        <ele>499.993784</ele>
        <time>2022-06-14T21:16:34.306Z</time>
      </trkpt>
      <trkpt lat="46.02969" lon="1.35782">
        <ele>499.280126</ele>
        <time>2022-06-14T21:16:44.875Z</time>
      </trkpt>
      <trkpt lat="46.02932" lon="1.35807">
        <ele>498.427209</ele>
        <time>2022-06-14T21:16:51.961Z</time>
      </trkpt>
      <trkpt lat="46.02899" lon="1.35809">
        <ele>497.756065</ele>
        <time>2022-06-14T21:16:57.404Z</time>
      </trkpt>
      <trkpt lat="46.02884" lon="1.35821">
        <ele>497.400088</ele>
        <time>2022-06-14T21:17:00.232Z</time>
      </trkpt>
      <trkpt lat="46.02882" lon="1.35826">
        <ele>497.314762</ele>
        <time>2022-06-14T21:17:00.971Z</time>
      </trkpt>
      <trkpt lat="46.0286" lon="1.35848">
        <ele>497.37336</ele>
        <time>2022-06-14T21:17:05.685Z</time>
      </trkpt>
      <trkpt lat="46.02787" lon="1.35803">
        <ele>498.430023</ele>
        <time>2022-06-14T21:17:25.515Z</time>
      </trkpt>
      <trkpt lat="46.02774" lon="1.35789">
        <ele>498.645134</ele>
        <time>2022-06-14T21:17:30.880Z</time>
      </trkpt>
      <trkpt lat="46.02758" lon="1.35836">
        <ele>499.123865</ele>
        <time>2022-06-14T21:17:44.577Z</time>
      </trkpt>
      <trkpt lat="46.02747" lon="1.35849">
        <ele>499.317256</ele>
        <time>2022-06-14T21:17:50.915Z</time>
      </trkpt>
      <trkpt lat="46.02633" lon="1.35932">
        <ele>503.616535</ele>
        <time>2022-06-14T21:18:42.143Z</time>
      </trkpt>
      <trkpt lat="46.02617" lon="1.35925">
        <ele>504.223046</ele>
        <time>2022-06-14T21:18:48.982Z</time>
      </trkpt>
      <trkpt lat="46.02602" lon="1.35884">
        <ele>505.409661</ele>
        <time>2022-06-14T21:19:01.172Z</time>
      </trkpt>
      <trkpt lat="46.02604" lon="1.3584">
        <ele>506.007002</ele>
        <time>2022-06-14T21:19:10.886Z</time>
      </trkpt>
      <trkpt lat="46.026" lon="1.35791">
        <ele>505.78964</ele>
        <time>2022-06-14T21:19:20.208Z</time>
      </trkpt>
      <trkpt lat="46.02604" lon="1.35776">
        <ele>505.720708</ele>
        <time>2022-06-14T21:19:23.085Z</time>
      </trkpt>
      <trkpt lat="46.02613" lon="1.35767">
        <ele>505.651661</ele>
        <time>2022-06-14T21:19:25.347Z</time>
      </trkpt>
      <trkpt lat="46.02654" lon="1.35758">
        <ele>505.386515</ele>
        <time>2022-06-14T21:19:33.432Z</time>
      </trkpt>
      <trkpt lat="46.02663" lon="1.35735">
        <ele>505.268662</ele>
        <time>2022-06-14T21:19:36.786Z</time>
      </trkpt>
      <trkpt lat="46.02657" lon="1.35707">
        <ele>505.136013</ele>
        <time>2022-06-14T21:19:40.440Z</time>
      </trkpt>
      <trkpt lat="46.02617" lon="1.35639">
        <ele>504.028781</ele>
        <time>2022-06-14T21:19:51.720Z</time>
      </trkpt>
      <trkpt lat="46.02613" lon="1.35615">
        <ele>503.519157</ele>
        <time>2022-06-14T21:19:54.762Z</time>
      </trkpt>
      <trkpt lat="46.02622" lon="1.35459">
        <ele>500.308639</ele>
        <time>2022-06-14T21:20:13.702Z</time>
      </trkpt>
      <trkpt lat="46.02617" lon="1.35427">
        <ele>499.654497</ele>
        <time>2022-06-14T21:20:17.402Z</time>
      </trkpt>
      <trkpt lat="46.02603" lon="1.35398">
        <ele>498.762878</ele>
        <time>2022-06-14T21:20:21.493Z</time>
      </trkpt>
      <trkpt lat="46.02575" lon="1.35382">
        <ele>497.69696</ele>
        <time>2022-06-14T21:20:26.312Z</time>
      </trkpt>
      <trkpt lat="46.02538" lon="1.35382">
        <ele>496.362955</ele>
        <time>2022-06-14T21:20:32.229Z</time>
      </trkpt>
      <trkpt lat="46.02448" lon="1.35453">
        <ele>493.547041</ele>
        <time>2022-06-14T21:20:49.596Z</time>
      </trkpt>
      <trkpt lat="46.02426" lon="1.35496">
        <ele>494.434471</ele>
        <time>2022-06-14T21:20:57.446Z</time>
      </trkpt>
      <trkpt lat="46.02422" lon="1.35583">
        <ele>495.872126</ele>
        <time>2022-06-14T21:21:15.154Z</time>
      </trkpt>
      <trkpt lat="46.02425" lon="1.35744">
        <ele>501.040346</ele>
        <time>2022-06-14T21:22:09.911Z</time>
      </trkpt>
      <trkpt lat="46.02407" lon="1.35824">
        <ele>505.696556</ele>
        <time>2022-06-14T21:22:45.321Z</time>
      </trkpt>
      <trkpt lat="46.02393" lon="1.35868">
        <ele>508.408425</ele>
        <time>2022-06-14T21:23:06.107Z</time>
      </trkpt>
      <trkpt lat="46.0238" lon="1.3589">
        <ele>510.0124</ele>
        <time>2022-06-14T21:23:18.448Z</time>
      </trkpt>
      <trkpt lat="46.023" lon="1.35985">
        <ele>514.902085</ele>
        <time>2022-06-14T21:24:10.213Z</time>
      </trkpt>
      <trkpt lat="46.02259" lon="1.36025">
        <ele>516.778351</ele>
        <time>2022-06-14T21:24:26.301Z</time>
      </trkpt>
      <trkpt lat="46.02234" lon="1.36075">
        <ele>518.378751</ele>
        <time>2022-06-14T21:24:37.551Z</time>
      </trkpt>
      <trkpt lat="46.02214" lon="1.36053">
        <ele>518.399996</ele>
        <time>2022-06-14T21:24:43.979Z</time>
      </trkpt>
      <trkpt lat="46.02195" lon="1.3607">
        <ele>518.052994</ele>
        <time>2022-06-14T21:24:49.644Z</time>
      </trkpt>
      <trkpt lat="46.02188" lon="1.36085">
        <ele>517.852348</ele>
        <time>2022-06-14T21:24:52.920Z</time>
      </trkpt>
      <trkpt lat="46.02174" lon="1.36114">
        <ele>517.462922</ele>
        <time>2022-06-14T21:24:59.280Z</time>
      </trkpt>
      <trkpt lat="46.02169" lon="1.36127">
        <ele>517.298904</ele>
        <time>2022-06-14T21:25:01.958Z</time>
      </trkpt>
      <trkpt lat="46.02152" lon="1.3615">
        <ele>516.934369</ele>
        <time>2022-06-14T21:25:07.911Z</time>
      </trkpt>
      <trkpt lat="46.02149" lon="1.36167">
        <ele>516.74106</ele>
        <time>2022-06-14T21:25:11.067Z</time>
      </trkpt>
      <trkpt lat="46.02142" lon="1.36196">
        <ele>516.396615</ele>
        <time>2022-06-14T21:25:16.691Z</time>
      </trkpt>
      <trkpt lat="46.02132" lon="1.36204">
        <ele>516.214893</ele>
        <time>2022-06-14T21:25:19.660Z</time>
      </trkpt>
      <trkpt lat="46.02118" lon="1.36229">
        <ele>515.86438</ele>
        <time>2022-06-14T21:25:25.385Z</time>
      </trkpt>
      <trkpt lat="46.02108" lon="1.36236">
        <ele>515.642306</ele>
        <time>2022-06-14T21:25:28.277Z</time>
      </trkpt>
      <trkpt lat="46.02087" lon="1.3624">
        <ele>515.187404</ele>
        <time>2022-06-14T21:25:33.845Z</time>
      </trkpt>
      <trkpt lat="46.02078" lon="1.36248">
        <ele>514.979027</ele>
        <time>2022-06-14T21:25:36.396Z</time>
      </trkpt>
      <trkpt lat="46.0206" lon="1.36265">
        <ele>514.509949</ele>
        <time>2022-06-14T21:25:42.137Z</time>
      </trkpt>
      <trkpt lat="46.02055" lon="1.36281">
        <ele>514.266958</ele>
        <time>2022-06-14T21:25:45.111Z</time>
      </trkpt>
      <trkpt lat="46.02049" lon="1.36309">
        <ele>513.837125</ele>
        <time>2022-06-14T21:25:50.371Z</time>
      </trkpt>
      <trkpt lat="46.02038" lon="1.3632">
        <ele>513.554121</ele>
        <time>2022-06-14T21:25:53.835Z</time>
      </trkpt>
      <trkpt lat="46.02018" lon="1.36321">
        <ele>513.118628</ele>
        <time>2022-06-14T21:25:59.165Z</time>
      </trkpt>
      <trkpt lat="46.02009" lon="1.36316">
        <ele>512.917071</ele>
        <time>2022-06-14T21:26:01.633Z</time>
      </trkpt>
      <trkpt lat="46.01985" lon="1.3631">
        <ele>512.395429</ele>
        <time>2022-06-14T21:26:08.018Z</time>
      </trkpt>
      <trkpt lat="46.01976" lon="1.36316">
        <ele>512.193301</ele>
        <time>2022-06-14T21:26:10.493Z</time>
      </trkpt>
      <trkpt lat="46.01961" lon="1.36332">
        <ele>511.448928</ele>
        <time>2022-06-14T21:26:15.189Z</time>
      </trkpt>
      <trkpt lat="46.01951" lon="1.36334">
        <ele>510.86713</ele>
        <time>2022-06-14T21:26:17.822Z</time>
      </trkpt>
      <trkpt lat="46.01928" lon="1.36318">
        <ele>509.413573</ele>
        <time>2022-06-14T21:26:24.400Z</time>
      </trkpt>
      <trkpt lat="46.01917" lon="1.36313">
        <ele>508.734178</ele>
        <time>2022-06-14T21:26:27.475Z</time>
      </trkpt>
      <trkpt lat="46.01899" lon="1.36291">
        <ele>507.393022</ele>
        <time>2022-06-14T21:26:33.548Z</time>
      </trkpt>
      <trkpt lat="46.0189" lon="1.36277">
        <ele>506.63408</ele>
        <time>2022-06-14T21:26:36.988Z</time>
      </trkpt>
      <trkpt lat="46.01889" lon="1.36249">
        <ele>505.528333</ele>
        <time>2022-06-14T21:26:41.997Z</time>
      </trkpt>
      <trkpt lat="46.01883" lon="1.36239">
        <ele>504.995254</ele>
        <time>2022-06-14T21:26:44.414Z</time>
      </trkpt>
      <trkpt lat="46.01865" lon="1.36226">
        <ele>503.860313</ele>
        <time>2022-06-14T21:26:49.555Z</time>
      </trkpt>
      <trkpt lat="46.01864" lon="1.3621">
        <ele>503.212915</ele>
        <time>2022-06-14T21:26:52.489Z</time>
      </trkpt>
      <trkpt lat="46.01849" lon="1.36195">
        <ele>502.164369</ele>
        <time>2022-06-14T21:26:57.241Z</time>
      </trkpt>
      <trkpt lat="46.01838" lon="1.36192">
        <ele>501.383068</ele>
        <time>2022-06-14T21:27:00.031Z</time>
      </trkpt>
      <trkpt lat="46.01814" lon="1.36193">
        <ele>498.768587</ele>
        <time>2022-06-14T21:27:06.366Z</time>
      </trkpt>
      <trkpt lat="46.01802" lon="1.36193">
        <ele>497.49391</ele>
        <time>2022-06-14T21:27:09.454Z</time>
      </trkpt>
      <trkpt lat="46.01777" lon="1.36189">
        <ele>494.866603</ele>
        <time>2022-06-14T21:27:15.830Z</time>
      </trkpt>
      <trkpt lat="46.01764" lon="1.3619">
        <ele>493.451092</ele>
        <time>2022-06-14T21:27:19.264Z</time>
      </trkpt>
      <trkpt lat="46.01745" lon="1.36191">
        <ele>491.436203</ele>
        <time>2022-06-14T21:27:24.158Z</time>
      </trkpt>
      <trkpt lat="46.01738" lon="1.36199">
        <ele>490.431996</ele>
        <time>2022-06-14T21:27:26.591Z</time>
      </trkpt>
      <trkpt lat="46.01717" lon="1.36209">
        <ele>488.10577</ele>
        <time>2022-06-14T21:27:32.242Z</time>
      </trkpt>
      <trkpt lat="46.01708" lon="1.36212">
        <ele>487.065767</ele>
        <time>2022-06-14T21:27:34.766Z</time>
      </trkpt>
      <trkpt lat="46.01685" lon="1.36219">
        <ele>484.610525</ele>
        <time>2022-06-14T21:27:40.726Z</time>
      </trkpt>
      <trkpt lat="46.01676" lon="1.36222">
        <ele>483.568634</ele>
        <time>2022-06-14T21:27:43.257Z</time>
      </trkpt>
      <trkpt lat="46.0166" lon="1.36239">
        <ele>481.500929</ele>
        <time>2022-06-14T21:27:48.375Z</time>
      </trkpt>
      <trkpt lat="46.01653" lon="1.36252">
        <ele>480.355507</ele>
        <time>2022-06-14T21:27:51.276Z</time>
      </trkpt>
      <trkpt lat="46.01647" lon="1.36278">
        <ele>478.372301</ele>
        <time>2022-06-14T21:27:56.290Z</time>
      </trkpt>
      <trkpt lat="46.01638" lon="1.36292">
        <ele>477.042999</ele>
        <time>2022-06-14T21:27:59.652Z</time>
      </trkpt>
      <trkpt lat="46.01628" lon="1.36327">
        <ele>474.376113</ele>
        <time>2022-06-14T21:28:06.391Z</time>
      </trkpt>
      <trkpt lat="46.01627" lon="1.36344">
        <ele>473.148173</ele>
        <time>2022-06-14T21:28:09.492Z</time>
      </trkpt>
      <trkpt lat="46.0162" lon="1.36396">
        <ele>469.374912</ele>
        <time>2022-06-14T21:28:19.025Z</time>
      </trkpt>
      <trkpt lat="46.01618" lon="1.36409">
        <ele>468.39165</ele>
        <time>2022-06-14T21:28:21.509Z</time>
      </trkpt>
      <trkpt lat="46.01627" lon="1.3644">
        <ele>466.034039</ele>
        <time>2022-06-14T21:28:27.457Z</time>
      </trkpt>
      <trkpt lat="46.01633" lon="1.36456">
        <ele>464.742292</ele>
        <time>2022-06-14T21:28:30.719Z</time>
      </trkpt>
      <trkpt lat="46.01645" lon="1.36481">
        <ele>463.245024</ele>
        <time>2022-06-14T21:28:36.192Z</time>
      </trkpt>
      <trkpt lat="46.0165" lon="1.36495">
        <ele>462.672971</ele>
        <time>2022-06-14T21:28:38.951Z</time>
      </trkpt>
      <trkpt lat="46.01662" lon="1.3652">
        <ele>461.515092</ele>
        <time>2022-06-14T21:28:44.529Z</time>
      </trkpt>
      <trkpt lat="46.0167" lon="1.36532">
        <ele>460.875862</ele>
        <time>2022-06-14T21:28:47.608Z</time>
      </trkpt>
      <trkpt lat="46.0168" lon="1.36561">
        <ele>459.686056</ele>
        <time>2022-06-14T21:28:53.334Z</time>
      </trkpt>
      <trkpt lat="46.01679" lon="1.36575">
        <ele>459.180271</ele>
        <time>2022-06-14T21:28:55.769Z</time>
      </trkpt>
      <trkpt lat="46.01658" lon="1.36573">
        <ele>458.063755</ele>
        <time>2022-06-14T21:29:01.139Z</time>
      </trkpt>
      <trkpt lat="46.0165" lon="1.3658">
        <ele>457.5235</ele>
        <time>2022-06-14T21:29:03.735Z</time>
      </trkpt>
      <trkpt lat="46.01633" lon="1.36597">
        <ele>456.439906</ele>
        <time>2022-06-14T21:29:08.943Z</time>
      </trkpt>
      <trkpt lat="46.01613" lon="1.3663">
        <ele>454.793794</ele>
        <time>2022-06-14T21:29:16.851Z</time>
      </trkpt>
      <trkpt lat="46.01605" lon="1.36636">
        <ele>454.323795</ele>
        <time>2022-06-14T21:29:19.384Z</time>
      </trkpt>
      <trkpt lat="46.01596" lon="1.36644">
        <ele>454.704923</ele>
        <time>2022-06-14T21:29:22.054Z</time>
      </trkpt>
      <trkpt lat="46.01597" lon="1.36646">
        <ele>454.774335</ele>
        <time>2022-06-14T21:29:22.745Z</time>
      </trkpt>
      <trkpt lat="46.016" lon="1.36669">
        <ele>455.377594</ele>
        <time>2022-06-14T21:29:29.613Z</time>
      </trkpt>
      <trkpt lat="46.01596" lon="1.3671">
        <ele>456.416391</ele>
        <time>2022-06-14T21:29:41.821Z</time>
      </trkpt>
      <trkpt lat="46.01599" lon="1.36719">
        <ele>456.66434</ele>
        <time>2022-06-14T21:29:44.991Z</time>
      </trkpt>
      <trkpt lat="46.01566" lon="1.36743">
        <ele>458.001327</ele>
        <time>2022-06-14T21:29:58.154Z</time>
      </trkpt>
      <trkpt lat="46.01554" lon="1.36745">
        <ele>458.461213</ele>
        <time>2022-06-14T21:30:03.311Z</time>
      </trkpt>
      <trkpt lat="46.01538" lon="1.36737">
        <ele>459.071172</ele>
        <time>2022-06-14T21:30:10.769Z</time>
      </trkpt>
      <trkpt lat="46.01534" lon="1.3675">
        <ele>459.434886</ele>
        <time>2022-06-14T21:30:17.213Z</time>
      </trkpt>
      <trkpt lat="46.01494" lon="1.36756">
        <ele>460.923536</ele>
        <time>2022-06-14T21:30:44.777Z</time>
      </trkpt>
      <trkpt lat="46.01454" lon="1.36751">
        <ele>464.015457</ele>
        <time>2022-06-14T21:31:12.202Z</time>
      </trkpt>
      <trkpt lat="46.01401" lon="1.36708">
        <ele>468.572818</ele>
        <time>2022-06-14T21:31:53.515Z</time>
      </trkpt>
      <trkpt lat="46.01385" lon="1.36686">
        <ele>470.291486</ele>
        <time>2022-06-14T21:32:07.540Z</time>
      </trkpt>
      <trkpt lat="46.01366" lon="1.36675">
        <ele>471.779862</ele>
        <time>2022-06-14T21:32:21.931Z</time>
      </trkpt>
      <trkpt lat="46.013" lon="1.36665">
        <ele>477.380608</ele>
        <time>2022-06-14T21:33:07.112Z</time>
      </trkpt>
      <trkpt lat="46.01289" lon="1.36671">
        <ele>478.443508</ele>
        <time>2022-06-14T21:33:11.798Z</time>
      </trkpt>
      <trkpt lat="46.01308" lon="1.36699">
        <ele>480.954625</ele>
        <time>2022-06-14T21:33:33.766Z</time>
      </trkpt>
      <trkpt lat="46.0133" lon="1.36888">
        <ele>493.579118</ele>
        <time>2022-06-14T21:35:16.953Z</time>
      </trkpt>
      <trkpt lat="46.01292" lon="1.3696">
        <ele>499.992827</ele>
        <time>2022-06-14T21:36:09.266Z</time>
      </trkpt>
      <trkpt lat="46.01294" lon="1.36982">
        <ele>501.556329</ele>
        <time>2022-06-14T21:36:22.280Z</time>
      </trkpt>
      <trkpt lat="46.01327" lon="1.37029">
        <ele>506.31084</ele>
        <time>2022-06-14T21:36:57.670Z</time>
      </trkpt>
      <trkpt lat="46.01343" lon="1.37087">
        <ele>510.083094</ele>
        <time>2022-06-14T21:37:28.267Z</time>
      </trkpt>
      <trkpt lat="46.01334" lon="1.37157">
        <ele>512.279164</ele>
        <time>2022-06-14T21:38:04.701Z</time>
      </trkpt>
      <trkpt lat="46.01337" lon="1.37204">
        <ele>513.70212</ele>
        <time>2022-06-14T21:38:24.772Z</time>
      </trkpt>
      <trkpt lat="46.0133" lon="1.37216">
        <ele>514.196015</ele>
        <time>2022-06-14T21:38:29.633Z</time>
      </trkpt>
      <trkpt lat="46.01292" lon="1.37212">
        <ele>515.873926</ele>
        <time>2022-06-14T21:38:45.942Z</time>
      </trkpt>
      <trkpt lat="46.01276" lon="1.37218">
        <ele>516.595977</ele>
        <time>2022-06-14T21:38:52.803Z</time>
      </trkpt>
      <trkpt lat="46.01251" lon="1.37217">
        <ele>517.493009</ele>
        <time>2022-06-14T21:39:01.619Z</time>
      </trkpt>
      <trkpt lat="46.0123" lon="1.37211">
        <ele>516.852697</ele>
        <time>2022-06-14T21:39:09.864Z</time>
      </trkpt>
      <trkpt lat="46.01212" lon="1.37187">
        <ele>516.11717</ele>
        <time>2022-06-14T21:39:17.682Z</time>
      </trkpt>
      <trkpt lat="46.01184" lon="1.37149">
        <ele>514.950936</ele>
        <time>2022-06-14T21:39:29.500Z</time>
      </trkpt>
      <trkpt lat="46.01116" lon="1.37135">
        <ele>512.887529</ele>
        <time>2022-06-14T21:39:49.242Z</time>
      </trkpt>
      <trkpt lat="46.01113" lon="1.37126">
        <ele>512.681428</ele>
        <time>2022-06-14T21:39:51.164Z</time>
      </trkpt>
      <trkpt lat="46.01114" lon="1.37117">
        <ele>512.477828</ele>
        <time>2022-06-14T21:39:53.090Z</time>
      </trkpt>
      <trkpt lat="46.01142" lon="1.37107">
        <ele>510.953604</ele>
        <time>2022-06-14T21:40:00.418Z</time>
      </trkpt>
      <trkpt lat="46.01148" lon="1.37097">
        <ele>510.370369</ele>
        <time>2022-06-14T21:40:02.701Z</time>
      </trkpt>
      <trkpt lat="46.01145" lon="1.37089">
        <ele>509.95053</ele>
        <time>2022-06-14T21:40:04.335Z</time>
      </trkpt>
      <trkpt lat="46.01042" lon="1.37094">
        <ele>503.144663</ele>
        <time>2022-06-14T21:40:31.328Z</time>
      </trkpt>
      <trkpt lat="46.00944" lon="1.37034">
        <ele>497.661411</ele>
        <time>2022-06-14T21:40:58.663Z</time>
      </trkpt>
      <trkpt lat="46.00907" lon="1.37037">
        <ele>496.185027</ele>
        <time>2022-06-14T21:41:08.547Z</time>
      </trkpt>
      <trkpt lat="46.00857" lon="1.3705">
        <ele>494.14195</ele>
        <time>2022-06-14T21:41:23.086Z</time>
      </trkpt>
      <trkpt lat="46.0073" lon="1.37207">
        <ele>498.898339</ele>
        <time>2022-06-14T21:42:44.718Z</time>
      </trkpt>
      <trkpt lat="46.00692" lon="1.37264">
        <ele>502.169422</ele>
        <time>2022-06-14T21:43:24.957Z</time>
      </trkpt>
      <trkpt lat="46.0067" lon="1.37361">
        <ele>509.947164</ele>
        <time>2022-06-14T21:44:21.786Z</time>
      </trkpt>
      <trkpt lat="46.00648" lon="1.37417">
        <ele>514.829718</ele>
        <time>2022-06-14T21:44:59.741Z</time>
      </trkpt>
      <trkpt lat="46.00603" lon="1.37476">
        <ele>521.462539</ele>
        <time>2022-06-14T21:45:53.006Z</time>
      </trkpt>
      <trkpt lat="46.00527" lon="1.37564">
        <ele>531.882883</ele>
        <time>2022-06-14T21:47:14.619Z</time>
      </trkpt>
      <trkpt lat="46.00474" lon="1.37609">
        <ele>538.360427</ele>
        <time>2022-06-14T21:48:00.225Z</time>
      </trkpt>
      <trkpt lat="46.00423" lon="1.37625">
        <ele>542.763978</ele>
        <time>2022-06-14T21:48:38.023Z</time>
      </trkpt>
      <trkpt lat="46.00386" lon="1.37655">
        <ele>546.009476</ele>
        <time>2022-06-14T21:49:06.628Z</time>
      </trkpt>
      <trkpt lat="46.00357" lon="1.37701">
        <ele>549.312436</ele>
        <time>2022-06-14T21:49:35.106Z</time>
      </trkpt>
      <trkpt lat="46.00358" lon="1.37728">
        <ele>550.744758</ele>
        <time>2022-06-14T21:49:47.724Z</time>
      </trkpt>
      <trkpt lat="46.00493" lon="1.37682">
        <ele>560.422806</ele>
        <time>2022-06-14T21:51:16.632Z</time>
      </trkpt>
      <trkpt lat="46.00529" lon="1.37663">
        <ele>563.025757</ele>
        <time>2022-06-14T21:51:39.378Z</time>
      </trkpt>
      <trkpt lat="46.00544" lon="1.37671">
        <ele>564.101051</ele>
        <time>2022-06-14T21:51:48.791Z</time>
      </trkpt>
      <trkpt lat="46.00502" lon="1.37718">
        <ele>567.236743</ele>
        <time>2022-06-14T21:52:26.944Z</time>
      </trkpt>
      <trkpt lat="46.00498" lon="1.37733">
        <ele>567.830145</ele>
        <time>2022-06-14T21:52:34.381Z</time>
      </trkpt>
      <trkpt lat="46.00485" lon="1.37785">
        <ele>569.837253</ele>
        <time>2022-06-14T21:52:58.426Z</time>
      </trkpt>
      <trkpt lat="46.00509" lon="1.37853">
        <ele>572.64824</ele>
        <time>2022-06-14T21:53:28.278Z</time>
      </trkpt>
      <trkpt lat="46.00507" lon="1.37901">
        <ele>574.40657</ele>
        <time>2022-06-14T21:53:46.287Z</time>
      </trkpt>
      <trkpt lat="46.00495" lon="1.37915">
        <ele>574.914753</ele>
        <time>2022-06-14T21:53:53.647Z</time>
      </trkpt>
      <trkpt lat="46.00456" lon="1.37966">
        <ele>573.008171</ele>
        <time>2022-06-14T21:54:17.532Z</time>
      </trkpt>
      <trkpt lat="46.00464" lon="1.38015">
        <ele>571.74414</ele>
        <time>2022-06-14T21:54:28.138Z</time>
      </trkpt>
      <trkpt lat="46.00454" lon="1.38031">
        <ele>571.198681</ele>
        <time>2022-06-14T21:54:32.375Z</time>
      </trkpt>
      <trkpt lat="46.0042" lon="1.38045">
        <ele>569.940035</ele>
        <time>2022-06-14T21:54:41.485Z</time>
      </trkpt>
      <trkpt lat="46.00395" lon="1.38032">
        <ele>568.973358</ele>
        <time>2022-06-14T21:54:47.914Z</time>
      </trkpt>
      <trkpt lat="46.00358" lon="1.37985">
        <ele>565.047336</ele>
        <time>2022-06-14T21:55:00.237Z</time>
      </trkpt>
      <trkpt lat="46.00344" lon="1.37956">
        <ele>562.851031</ele>
        <time>2022-06-14T21:55:06.074Z</time>
      </trkpt>
      <trkpt lat="46.00292" lon="1.37917">
        <ele>557.444559</ele>
        <time>2022-06-14T21:55:20.731Z</time>
      </trkpt>
      <trkpt lat="46.00259" lon="1.37863">
        <ele>552.880824</ele>
        <time>2022-06-14T21:55:32.901Z</time>
      </trkpt>
      <trkpt lat="46.00237" lon="1.37864">
        <ele>551.140523</ele>
        <time>2022-06-14T21:55:38.550Z</time>
      </trkpt>
      <trkpt lat="46.00189" lon="1.37927">
        <ele>546.75352</ele>
        <time>2022-06-14T21:55:55.801Z</time>
      </trkpt>
      <trkpt lat="46.00168" lon="1.37943">
        <ele>545.137439</ele>
        <time>2022-06-14T21:56:02.257Z</time>
      </trkpt>
      <trkpt lat="46.00134" lon="1.37954">
        <ele>542.776133</ele>
        <time>2022-06-14T21:56:11.648Z</time>
      </trkpt>
      <trkpt lat="46.00083" lon="1.37935">
        <ele>539.212436</ele>
        <time>2022-06-14T21:56:25.511Z</time>
      </trkpt>
      <trkpt lat="46.00041" lon="1.37887">
        <ele>535.620697</ele>
        <time>2022-06-14T21:56:38.986Z</time>
      </trkpt>
      <trkpt lat="46.00015" lon="1.37871">
        <ele>533.707397</ele>
        <time>2022-06-14T21:56:46.211Z</time>
      </trkpt>
      <trkpt lat="45.99996" lon="1.37867">
        <ele>532.398831</ele>
        <time>2022-06-14T21:56:51.239Z</time>
      </trkpt>
      <trkpt lat="45.99968" lon="1.37883">
        <ele>530.406479</ele>
        <time>2022-06-14T21:56:58.959Z</time>
      </trkpt>
      <trkpt lat="45.99939" lon="1.37888">
        <ele>528.437903</ele>
        <time>2022-06-14T21:57:06.550Z</time>
      </trkpt>
      <trkpt lat="45.99885" lon="1.37699">
        <ele>524.140794</ele>
        <time>2022-06-14T21:57:29.181Z</time>
      </trkpt>
      <trkpt lat="45.9985" lon="1.37686">
        <ele>523.138043</ele>
        <time>2022-06-14T21:57:38.155Z</time>
      </trkpt>
      <trkpt lat="45.99793" lon="1.37692">
        <ele>522.675729</ele>
        <time>2022-06-14T21:57:51.984Z</time>
      </trkpt>
      <trkpt lat="45.99739" lon="1.37675">
        <ele>522.500661</ele>
        <time>2022-06-14T21:58:04.263Z</time>
      </trkpt>
      <trkpt lat="45.99722" lon="1.37676">
        <ele>522.446806</ele>
        <time>2022-06-14T21:58:07.940Z</time>
      </trkpt>
      <trkpt lat="45.99706" lon="1.37683">
        <ele>522.396049</ele>
        <time>2022-06-14T21:58:11.341Z</time>
      </trkpt>
      <trkpt lat="45.99688" lon="1.37712">
        <ele>522.309865</ele>
        <time>2022-06-14T21:58:16.701Z</time>
      </trkpt>
      <trkpt lat="45.99672" lon="1.37725">
        <ele>522.252117</ele>
        <time>2022-06-14T21:58:20.013Z</time>
      </trkpt>
      <trkpt lat="45.9963" lon="1.37755">
        <ele>522.537318</ele>
        <time>2022-06-14T21:58:28.981Z</time>
      </trkpt>
      <trkpt lat="45.99578" lon="1.37735">
        <ele>522.877726</ele>
        <time>2022-06-14T21:58:40.206Z</time>
      </trkpt>
      <trkpt lat="45.99555" lon="1.37755">
        <ele>523.046856</ele>
        <time>2022-06-14T21:58:46.757Z</time>
      </trkpt>
      <trkpt lat="45.99538" lon="1.3777">
        <ele>523.171099</ele>
        <time>2022-06-14T21:58:51.864Z</time>
      </trkpt>
      <trkpt lat="45.99528" lon="1.3777">
        <ele>523.231892</ele>
        <time>2022-06-14T21:58:54.795Z</time>
      </trkpt>
      <trkpt lat="45.9952" lon="1.37812">
        <ele>523.818315</ele>
        <time>2022-06-14T21:59:05.552Z</time>
      </trkpt>
      <trkpt lat="45.99481" lon="1.37863">
        <ele>527.259703</ele>
        <time>2022-06-14T21:59:28.004Z</time>
      </trkpt>
      <trkpt lat="45.99478" lon="1.37869">
        <ele>527.567756</ele>
        <time>2022-06-14T21:59:30.315Z</time>
      </trkpt>
      <trkpt lat="45.99442" lon="1.37918">
        <ele>530.788836</ele>
        <time>2022-06-14T21:59:55.041Z</time>
      </trkpt>
      <trkpt lat="45.99423" lon="1.37929">
        <ele>532.13845</ele>
        <time>2022-06-14T22:00:07.296Z</time>
      </trkpt>
      <trkpt lat="45.99305" lon="1.37977">
        <ele>540.68752</ele>
        <time>2022-06-14T22:01:19.882Z</time>
      </trkpt>
      <trkpt lat="45.99266" lon="1.38009">
        <ele>543.923176</ele>
        <time>2022-06-14T22:01:43.404Z</time>
      </trkpt>
      <trkpt lat="45.99224" lon="1.38043">
        <ele>547.449219</ele>
        <time>2022-06-14T22:02:06.189Z</time>
      </trkpt>
      <trkpt lat="45.99182" lon="1.38093">
        <ele>548.589659</ele>
        <time>2022-06-14T22:02:28.064Z</time>
      </trkpt>
      <trkpt lat="45.99127" lon="1.38115">
        <ele>549.210076</ele>
        <time>2022-06-14T22:02:45.691Z</time>
      </trkpt>
      <trkpt lat="45.99095" lon="1.38113">
        <ele>549.566089</ele>
        <time>2022-06-14T22:02:52.540Z</time>
      </trkpt>
      <trkpt lat="45.99031" lon="1.38066">
        <ele>548.783416</ele>
        <time>2022-06-14T22:03:05.545Z</time>
      </trkpt>
      <trkpt lat="45.98949" lon="1.38029">
        <ele>544.66258</ele>
        <time>2022-06-14T22:03:19.424Z</time>
      </trkpt>
      <trkpt lat="45.98916" lon="1.38013">
        <ele>542.960552</ele>
        <time>2022-06-14T22:03:28.792Z</time>
      </trkpt>
      <trkpt lat="45.9885" lon="1.38014">
        <ele>538.670972</ele>
        <time>2022-06-14T22:03:45.804Z</time>
      </trkpt>
      <trkpt lat="45.98635" lon="1.38062">
        <ele>521.873933</ele>
        <time>2022-06-14T22:04:40.465Z</time>
      </trkpt>
      <trkpt lat="45.98585" lon="1.38084">
        <ele>518.296388</ele>
        <time>2022-06-14T22:04:54.226Z</time>
      </trkpt>
      <trkpt lat="45.98554" lon="1.38107">
        <ele>515.984948</ele>
        <time>2022-06-14T22:05:03.307Z</time>
      </trkpt>
      <trkpt lat="45.98464" lon="1.38271">
        <ele>510.655043</ele>
        <time>2022-06-14T22:05:45.970Z</time>
      </trkpt>
      <trkpt lat="45.98409" lon="1.38387">
        <ele>507.513838</ele>
        <time>2022-06-14T22:06:17.039Z</time>
      </trkpt>
      <trkpt lat="45.98364" lon="1.38459">
        <ele>505.229563</ele>
        <time>2022-06-14T22:06:37.403Z</time>
      </trkpt>
      <trkpt lat="45.98354" lon="1.38512">
        <ele>503.94463</ele>
        <time>2022-06-14T22:06:48.270Z</time>
      </trkpt>
      <trkpt lat="45.98271" lon="1.38593">
        <ele>498.445156</ele>
        <time>2022-06-14T22:07:15.199Z</time>
      </trkpt>
      <trkpt lat="45.9823" lon="1.3864">
        <ele>494.970116</ele>
        <time>2022-06-14T22:07:28.951Z</time>
      </trkpt>
      <trkpt lat="45.98213" lon="1.38677">
        <ele>492.962885</ele>
        <time>2022-06-14T22:07:36.861Z</time>
      </trkpt>
      <trkpt lat="45.98204" lon="1.38706">
        <ele>491.528411</ele>
        <time>2022-06-14T22:07:42.436Z</time>
      </trkpt>
      <trkpt lat="45.98205" lon="1.38743">
        <ele>489.769598</ele>
        <time>2022-06-14T22:07:49.021Z</time>
      </trkpt>
      <trkpt lat="45.98207" lon="1.38759">
        <ele>488.958302</ele>
        <time>2022-06-14T22:07:51.879Z</time>
      </trkpt>
      <trkpt lat="45.98212" lon="1.38801">
        <ele>486.84212</ele>
        <time>2022-06-14T22:07:59.629Z</time>
      </trkpt>
      <trkpt lat="45.98235" lon="1.3889">
        <ele>482.133888</ele>
        <time>2022-06-14T22:08:17.239Z</time>
      </trkpt>
      <trkpt lat="45.98226" lon="1.38933">
        <ele>479.935165</ele>
        <time>2022-06-14T22:08:25.269Z</time>
      </trkpt>
      <trkpt lat="45.98218" lon="1.38941">
        <ele>479.235884</ele>
        <time>2022-06-14T22:08:27.740Z</time>
      </trkpt>
      <trkpt lat="45.982" lon="1.38938">
        <ele>477.819257</ele>
        <time>2022-06-14T22:08:32.431Z</time>
      </trkpt>
      <trkpt lat="45.98134" lon="1.38907">
        <ele>470.586136</ele>
        <time>2022-06-14T22:08:49.746Z</time>
      </trkpt>
      <trkpt lat="45.98039" lon="1.38921">
        <ele>460.789209</ele>
        <time>2022-06-14T22:09:12.582Z</time>
      </trkpt>
      <trkpt lat="45.97998" lon="1.38975">
        <ele>454.499831</ele>
        <time>2022-06-14T22:09:20.360Z</time>
      </trkpt>
      <trkpt lat="45.97973" lon="1.38995">
        <ele>451.269582</ele>
        <time>2022-06-14T22:09:24.265Z</time>
      </trkpt>
      <trkpt lat="45.97916" lon="1.39018">
        <ele>444.531573</ele>
        <time>2022-06-14T22:09:32.485Z</time>
      </trkpt>
      <trkpt lat="45.97877" lon="1.39023">
        <ele>440.140763</ele>
        <time>2022-06-14T22:09:37.939Z</time>
      </trkpt>
      <trkpt lat="45.97867" lon="1.39033">
        <ele>438.972446</ele>
        <time>2022-06-14T22:09:39.643Z</time>
      </trkpt>
      <trkpt lat="45.97851" lon="1.39055">
        <ele>437.81645</ele>
        <time>2022-06-14T22:09:43.111Z</time>
      </trkpt>
      <trkpt lat="45.97818" lon="1.39124">
        <ele>434.852434</ele>
        <time>2022-06-14T22:09:52.092Z</time>
      </trkpt>
      <trkpt lat="45.97819" lon="1.39132">
        <ele>434.576826</ele>
        <time>2022-06-14T22:09:52.862Z</time>
      </trkpt>
      <trkpt lat="45.97898" lon="1.39106">
        <ele>430.424336</ele>
        <time>2022-06-14T22:10:15.859Z</time>
      </trkpt>
      <trkpt lat="45.97932" lon="1.39103">
        <ele>429.880924</ele>
        <time>2022-06-14T22:10:28.373Z</time>
      </trkpt>
      <trkpt lat="45.97957" lon="1.39106">
        <ele>429.802075</ele>
        <time>2022-06-14T22:10:39.319Z</time>
      </trkpt>
      <trkpt lat="45.9803" lon="1.39145">
        <ele>429.561156</ele>
        <time>2022-06-14T22:11:10.105Z</time>
      </trkpt>
      <trkpt lat="45.98063" lon="1.3916">
        <ele>429.452112</ele>
        <time>2022-06-14T22:11:23.087Z</time>
      </trkpt>
      <trkpt lat="45.98094" lon="1.39167">
        <ele>428.602361</ele>
        <time>2022-06-14T22:11:34.043Z</time>
      </trkpt>
      <trkpt lat="45.9812" lon="1.39193">
        <ele>426.81805</ele>
        <time>2022-06-14T22:11:44.151Z</time>
      </trkpt>
      <trkpt lat="45.98148" lon="1.39273">
        <ele>423.323123</ele>
        <time>2022-06-14T22:12:01.732Z</time>
      </trkpt>
      <trkpt lat="45.98152" lon="1.39315">
        <ele>421.676052</ele>
        <time>2022-06-14T22:12:09.022Z</time>
      </trkpt>
      <trkpt lat="45.98151" lon="1.39335">
        <ele>420.885037</ele>
        <time>2022-06-14T22:12:12.543Z</time>
      </trkpt>
      <trkpt lat="45.9815" lon="1.39347">
        <ele>420.434625</ele>
        <time>2022-06-14T22:12:14.456Z</time>
      </trkpt>
      <trkpt lat="45.98138" lon="1.39393">
        <ele>418.063928</ele>
        <time>2022-06-14T22:12:22.780Z</time>
      </trkpt>
      <trkpt lat="45.98119" lon="1.39432">
        <ele>415.293189</ele>
        <time>2022-06-14T22:12:30.734Z</time>
      </trkpt>
      <trkpt lat="45.98085" lon="1.39472">
        <ele>411.501346</ele>
        <time>2022-06-14T22:12:41.547Z</time>
      </trkpt>
      <trkpt lat="45.98065" lon="1.39506">
        <ele>408.865187</ele>
        <time>2022-06-14T22:12:49.343Z</time>
      </trkpt>
      <trkpt lat="45.98034" lon="1.39542">
        <ele>405.421961</ele>
        <time>2022-06-14T22:12:59.572Z</time>
      </trkpt>
      <trkpt lat="45.98075" lon="1.39547">
        <ele>403.685187</ele>
        <time>2022-06-14T22:13:05.947Z</time>
      </trkpt>
      <trkpt lat="45.98109" lon="1.39575">
        <ele>403.338073</ele>
        <time>2022-06-14T22:13:12.455Z</time>
      </trkpt>
      <trkpt lat="45.98111" lon="1.39593">
        <ele>403.222996</ele>
        <time>2022-06-14T22:13:15.639Z</time>
      </trkpt>
      <trkpt lat="45.98103" lon="1.39825">
        <ele>402.358156</ele>
        <time>2022-06-14T22:14:03.982Z</time>
      </trkpt>
      <trkpt lat="45.98096" lon="1.39869">
        <ele>402.401973</ele>
        <time>2022-06-14T22:14:11.629Z</time>
      </trkpt>
      <trkpt lat="45.98044" lon="1.39994">
        <ele>402.361063</ele>
        <time>2022-06-14T22:14:32.986Z</time>
      </trkpt>
      <trkpt lat="45.9802" lon="1.40068">
        <ele>401.328834</ele>
        <time>2022-06-14T22:14:43.559Z</time>
      </trkpt>
      <trkpt lat="45.97983" lon="1.40127">
        <ele>400.325864</ele>
        <time>2022-06-14T22:14:54.196Z</time>
      </trkpt>
      <trkpt lat="45.97963" lon="1.40143">
        <ele>399.912818</ele>
        <time>2022-06-14T22:14:58.632Z</time>
      </trkpt>
      <trkpt lat="45.97924" lon="1.40165">
        <ele>399.199344</ele>
        <time>2022-06-14T22:15:06.857Z</time>
      </trkpt>
      <trkpt lat="45.97804" lon="1.40208">
        <ele>397.821932</ele>
        <time>2022-06-14T22:15:33.196Z</time>
      </trkpt>
      <trkpt lat="45.97547" lon="1.40183">
        <ele>396.668511</ele>
        <time>2022-06-14T22:16:33.370Z</time>
      </trkpt>
      <trkpt lat="45.97533" lon="1.40177">
        <ele>396.711098</ele>
        <time>2022-06-14T22:16:36.637Z</time>
      </trkpt>
      <trkpt lat="45.97499" lon="1.40137">
        <ele>396.841753</ele>
        <time>2022-06-14T22:16:46.994Z</time>
      </trkpt>
      <trkpt lat="45.97531" lon="1.40084">
        <ele>396.986076</ele>
        <time>2022-06-14T22:17:06.395Z</time>
      </trkpt>
      <trkpt lat="45.97483" lon="1.40005">
        <ele>397.630857</ele>
        <time>2022-06-14T22:17:36.236Z</time>
      </trkpt>
      <trkpt lat="45.97465" lon="1.3999">
        <ele>398.002292</ele>
        <time>2022-06-14T22:17:44.570Z</time>
      </trkpt>
      <trkpt lat="45.9746" lon="1.39973">
        <ele>398.242857</ele>
        <time>2022-06-14T22:17:50.585Z</time>
      </trkpt>
      <trkpt lat="45.97425" lon="1.39854">
        <ele>399.885188</ele>
        <time>2022-06-14T22:18:32.440Z</time>
      </trkpt>
      <trkpt lat="45.97375" lon="1.39877">
        <ele>400.553387</ele>
        <time>2022-06-14T22:18:57.517Z</time>
      </trkpt>
      <trkpt lat="45.973" lon="1.39951">
        <ele>401.060013</ele>
        <time>2022-06-14T22:19:33.849Z</time>
      </trkpt>
      <trkpt lat="45.97281" lon="1.39971">
        <ele>401.190836</ele>
        <time>2022-06-14T22:19:42.303Z</time>
      </trkpt>
      <trkpt lat="45.97246" lon="1.40019">
        <ele>401.319352</ele>
        <time>2022-06-14T22:19:59.242Z</time>
      </trkpt>
      <trkpt lat="45.97231" lon="1.40048">
        <ele>400.949415</ele>
        <time>2022-06-14T22:20:07.558Z</time>
      </trkpt>
      <trkpt lat="45.97193" lon="1.40136">
        <ele>399.880098</ele>
        <time>2022-06-14T22:20:30.578Z</time>
      </trkpt>
      <trkpt lat="45.97149" lon="1.40263">
        <ele>398.262421</ele>
        <time>2022-06-14T22:21:02.392Z</time>
      </trkpt>
      <trkpt lat="45.97136" lon="1.40291">
        <ele>397.767654</ele>
        <time>2022-06-14T22:21:09.833Z</time>
      </trkpt>
      <trkpt lat="45.97119" lon="1.40313">
        <ele>397.266084</ele>
        <time>2022-06-14T22:21:17.309Z</time>
      </trkpt>
      <trkpt lat="45.97074" lon="1.40411">
        <ele>395.500262</ele>
        <time>2022-06-14T22:21:43.482Z</time>
      </trkpt>
      <trkpt lat="45.96999" lon="1.4061">
        <ele>389.295213</ele>
        <time>2022-06-14T22:22:28.549Z</time>
      </trkpt>
      <trkpt lat="45.96958" lon="1.40672">
        <ele>386.705318</ele>
        <time>2022-06-14T22:22:44.353Z</time>
      </trkpt>
      <trkpt lat="45.96952" lon="1.40697">
        <ele>385.901352</ele>
        <time>2022-06-14T22:22:49.213Z</time>
      </trkpt>
      <trkpt lat="45.97003" lon="1.40832">
        <ele>381.322797</ele>
        <time>2022-06-14T22:23:06.143Z</time>
      </trkpt>
      <trkpt lat="45.97039" lon="1.40911">
        <ele>379.291688</ele>
        <time>2022-06-14T22:23:17.809Z</time>
      </trkpt>
      <trkpt lat="45.9704" lon="1.40975">
        <ele>379.291688</ele>
        <time>2022-06-14T22:23:27.156Z</time>
      </trkpt>
      <trkpt lat="45.97037" lon="1.41028">
        <ele>379.291688</ele>
        <time>2022-06-14T22:23:36.250Z</time>
      </trkpt>
      <trkpt lat="45.97018" lon="1.41096">
        <ele>379.291688</ele>
        <time>2022-06-14T22:23:50.565Z</time>
      </trkpt>
    </trkseg>
  </trk>
</gpx>